Observation data for Caprock Canyons on 05/24/2020      Previous  Date  Next       Current Mesonet Observations  Soil Data  Daily Summary Page  Observations in Plain Language
KQU1 240500Z 20011KT 19/13 A2981 RMK A01 T01860126  RH  068%=      5-min Rain = 0
KQU1 240501Z 19010KT 19/13 A2981 RMK A01 T01860126  RH  068%=      5-min Rain = 0
KQU1 240502Z 20009KT 19/13 A2981 RMK A01 T01860126  RH  068%=      5-min Rain = 0
KQU1 240503Z 19008KT 19/13 A2981 RMK A01 T01860125  RH  068%=      5-min Rain = 0
KQU1 240504Z 20009KT 19/13 A2981 RMK A01 T01860125  RH  067%=      5-min Rain = 0
KQU1 240505Z 20009KT 19/13 A2981 RMK A01 T01860125  RH  068%=      5-min Rain = 0
KQU1 240506Z 21009KT 19/13 A2981 RMK A01 T01860125  RH  067%=      5-min Rain = 0
KQU1 240507Z 20010KT 19/13 A2981 RMK A01 T01860125  RH  068%=      5-min Rain = 0
KQU1 240508Z 19011KT 19/12 A2981 RMK A01 T01860124  RH  067%=      5-min Rain = 0
KQU1 240509Z 20010KT 19/12 A2981 RMK A01 T01860124  RH  067%=      5-min Rain = 0
KQU1 240510Z 19011KT 19/12 A2981 RMK A01 T01860124  RH  067%=      5-min Rain = 0
KQU1 240511Z 20012KT 19/12 A2981 RMK A01 T01870123  RH  067%=      5-min Rain = 0
KQU1 240512Z 20012KT 19/12 A2981 RMK A01 T01870123  RH  066%=      5-min Rain = 0
KQU1 240513Z 20011KT 19/12 A2981 RMK A01 T01880124  RH  066%=      5-min Rain = 0
KQU1 240514Z 20010KT 19/12 A2981 RMK A01 T01880123  RH  066%=      5-min Rain = 0
KQU1 240515Z 20009KT 19/12 A2981 RMK A01 T01880124  RH  066%=      5-min Rain = 0
KQU1 240516Z 20011KT 19/12 A2981 RMK A01 T01870123  RH  066%=      5-min Rain = 0
KQU1 240517Z 20012KT 19/12 A2981 RMK A01 T01880122  RH  066%=      5-min Rain = 0
KQU1 240518Z 20011KT 19/12 A2981 RMK A01 T01890123  RH  065%=      5-min Rain = 0
KQU1 240519Z 21010KT 19/12 A2981 RMK A01 T01890123  RH  066%=      5-min Rain = 0
KQU1 240520Z 21010KT 19/12 A2981 RMK A01 T01880123  RH  066%=      5-min Rain = 0
KQU1 240521Z 21010KT 19/12 A2981 RMK A01 T01870124  RH  066%=      5-min Rain = 0
KQU1 240522Z 21010KT 19/12 A2981 RMK A01 T01870123  RH  067%=      5-min Rain = 0
KQU1 240523Z 21010KT 19/12 A2981 RMK A01 T01860122  RH  066%=      5-min Rain = 0
KQU1 240524Z 21010KT 19/12 A2982 RMK A01 T01860122  RH  066%=      5-min Rain = 0
KQU1 240525Z 20010KT 19/12 A2982 RMK A01 T01870121  RH  065%=      5-min Rain = 0
KQU1 240526Z 21011KT 19/12 A2982 RMK A01 T01880121  RH  065%=      5-min Rain = 0
KQU1 240527Z 21010KT 19/12 A2982 RMK A01 T01880121  RH  065%=      5-min Rain = 0
KQU1 240528Z 21009KT 19/12 A2982 RMK A01 T01880121  RH  065%=      5-min Rain = 0
KQU1 240529Z 21008KT 19/12 A2982 RMK A01 T01880121  RH  065%=      5-min Rain = 0
KQU1 240530Z 21008KT 19/12 A2982 RMK A01 T01880120  RH  064%=      5-min Rain = 0
KQU1 240531Z 21007KT 19/12 A2982 RMK A01 T01890120  RH  064%=      5-min Rain = 0
KQU1 240532Z 20006KT 19/12 A2982 RMK A01 T01890120  RH  064%=      5-min Rain = 0
KQU1 240533Z 21007KT 19/12 A2982 RMK A01 T01890120  RH  064%=      5-min Rain = 0
KQU1 240534Z 22008KT 19/12 A2982 RMK A01 T01890119  RH  064%=      5-min Rain = 0
KQU1 240535Z 21008KT 19/12 A2982 RMK A01 T01890120  RH  064%=      5-min Rain = 0
KQU1 240536Z 21009KT 19/12 A2982 RMK A01 T01890120  RH  064%=      5-min Rain = 0
KQU1 240537Z 21006KT 19/12 A2982 RMK A01 T01890120  RH  064%=      5-min Rain = 0
KQU1 240538Z 21005KT 19/12 A2982 RMK A01 T01890119  RH  064%=      5-min Rain = 0
KQU1 240539Z 20005KT 19/12 A2982 RMK A01 T01890119  RH  064%=      5-min Rain = 0
KQU1 240540Z 21006KT 19/12 A2982 RMK A01 T01890118  RH  063%=      5-min Rain = 0
KQU1 240541Z 21006KT 19/12 A2982 RMK A01 T01890118  RH  063%=      5-min Rain = 0
KQU1 240542Z 21007KT 19/12 A2981 RMK A01 T01890117  RH  063%=      5-min Rain = 0
KQU1 240543Z 21006KT 19/12 A2981 RMK A01 T01900116  RH  062%=      5-min Rain = 0
KQU1 240544Z 21007KT 19/12 A2981 RMK A01 T01900117  RH  062%=      5-min Rain = 0
KQU1 240545Z 21007KT 19/12 A2982 RMK A01 T01900117  RH  062%=      5-min Rain = 0
KQU1 240546Z 21007KT 19/12 A2981 RMK A01 T01900117  RH  062%=      5-min Rain = 0
KQU1 240547Z 21006KT 19/12 A2981 RMK A01 T01900117  RH  062%=      5-min Rain = 0
KQU1 240548Z 21007KT 19/12 A2982 RMK A01 T01900117  RH  062%=      5-min Rain = 0
KQU1 240549Z 21008KT 19/12 A2982 RMK A01 T01900117  RH  062%=      5-min Rain = 0
KQU1 240550Z 21006KT 19/12 A2982 RMK A01 T01900117  RH  062%=      5-min Rain = 0
KQU1 240551Z 20005KT 19/12 A2981 RMK A01 T01910116  RH  062%=      5-min Rain = 0
KQU1 240552Z 21005KT 19/12 A2981 RMK A01 T01910116  RH  062%=      5-min Rain = 0
KQU1 240553Z 22007KT 19/12 A2981 RMK A01 T01910116  RH  062%=      5-min Rain = 0
KQU1 240554Z 22009KT 19/12 A2981 RMK A01 T01910116  RH  062%=      5-min Rain = 0
KQU1 240555Z 21008KT 19/12 A2981 RMK A01 T01910115  RH  062%=      5-min Rain = 0
KQU1 240556Z 21008KT 19/12 A2981 RMK A01 T01910115  RH  061%=      5-min Rain = 0
KQU1 240557Z 20008KT 19/12 A2981 RMK A01 T01920115  RH  061%=      5-min Rain = 0
KQU1 240558Z 21008KT 19/12 A2981 RMK A01 T01920115  RH  061%=      5-min Rain = 0
KQU1 240559Z 20007KT 19/12 A2981 RMK A01 T01920116  RH  061%=      5-min Rain = 0
KQU1 240600Z 20007KT 19/12 A2982 RMK A01 T01920116  RH  061%=      5-min Rain = 0
KQU1 240601Z 20007KT 19/12 A2981 RMK A01 T01920116  RH  062%=      5-min Rain = 0
KQU1 240602Z 21007KT 19/12 A2982 RMK A01 T01910116  RH  062%=      5-min Rain = 0
KQU1 240603Z 20007KT 19/12 A2982 RMK A01 T01910117  RH  062%=      5-min Rain = 0
KQU1 240604Z 20006KT 19/12 A2982 RMK A01 T01900115  RH  062%=      5-min Rain = 0
KQU1 240605Z 20006KT 19/12 A2982 RMK A01 T01910116  RH  062%=      5-min Rain = 0
KQU1 240606Z 20006KT 19/12 A2982 RMK A01 T01900117  RH  062%=      5-min Rain = 0
KQU1 240607Z 19006KT 19/12 A2982 RMK A01 T01900118  RH  063%=      5-min Rain = 0
KQU1 240608Z 20007KT 19/12 A2982 RMK A01 T01890118  RH  063%=      5-min Rain = 0
KQU1 240609Z 20007KT 19/12 A2982 RMK A01 T01880118  RH  064%=      5-min Rain = 0
KQU1 240610Z 20007KT 19/12 A2982 RMK A01 T01870118  RH  064%=      5-min Rain = 0
KQU1 240611Z 20007KT 19/12 A2982 RMK A01 T01870118  RH  064%=      5-min Rain = 0
KQU1 240612Z 20006KT 19/12 A2982 RMK A01 T01860118  RH  064%=      5-min Rain = 0
KQU1 240613Z 19006KT 19/12 A2982 RMK A01 T01850119  RH  065%=      5-min Rain = 0
KQU1 240614Z 19006KT 19/12 A2982 RMK A01 T01850118  RH  065%=      5-min Rain = 0
KQU1 240615Z 18007KT 18/12 A2983 RMK A01 T01840119  RH  066%=      5-min Rain = 0
KQU1 240616Z 19008KT 18/12 A2983 RMK A01 T01830117  RH  065%=      5-min Rain = 0
KQU1 240617Z 19007KT 18/12 A2983 RMK A01 T01830118  RH  066%=      5-min Rain = 0
KQU1 240618Z 19007KT 18/12 A2983 RMK A01 T01830119  RH  066%=      5-min Rain = 0
KQU1 240619Z 19007KT 18/12 A2983 RMK A01 T01830119  RH  066%=      5-min Rain = 0
KQU1 240620Z 19007KT 18/12 A2983 RMK A01 T01820119  RH  066%=      5-min Rain = 0
KQU1 240621Z 19007KT 18/12 A2983 RMK A01 T01820119  RH  066%=      5-min Rain = 0
KQU1 240622Z 19006KT 18/12 A2983 RMK A01 T01820119  RH  067%=      5-min Rain = 0
KQU1 240623Z 19006KT 18/12 A2983 RMK A01 T01820119  RH  067%=      5-min Rain = 0
KQU1 240624Z 18006KT 18/12 A2983 RMK A01 T01820119  RH  067%=      5-min Rain = 0
KQU1 240625Z 18005KT 18/12 A2983 RMK A01 T01820119  RH  067%=      5-min Rain = 0
KQU1 240626Z 18005KT 18/12 A2983 RMK A01 T01810118  RH  067%=      5-min Rain = 0
KQU1 240627Z 19006KT 18/12 A2983 RMK A01 T01810118  RH  066%=      5-min Rain = 0
KQU1 240628Z 19006KT 18/12 A2983 RMK A01 T01820118  RH  066%=      5-min Rain = 0
KQU1 240629Z 19005KT 18/12 A2983 RMK A01 T01820119  RH  067%=      5-min Rain = 0
KQU1 240630Z 18004KT 18/12 A2983 RMK A01 T01820118  RH  066%=      5-min Rain = 0
KQU1 240631Z 17005KT 18/12 A2983 RMK A01 T01820117  RH  065%=      5-min Rain = 0
KQU1 240632Z 18006KT 18/12 A2983 RMK A01 T01820116  RH  065%=      5-min Rain = 0
KQU1 240633Z 18007KT 18/12 A2983 RMK A01 T01830115  RH  064%=      5-min Rain = 0
KQU1 240634Z 18008KT 18/11 A2983 RMK A01 T01840114  RH  064%=      5-min Rain = 0
KQU1 240635Z 19007KT 19/11 A2983 RMK A01 T01850113  RH  063%=      5-min Rain = 0
KQU1 240636Z 19007KT 19/11 A2983 RMK A01 T01870113  RH  062%=      5-min Rain = 0
KQU1 240637Z 19007KT 19/11 A2983 RMK A01 T01880113  RH  062%=      5-min Rain = 0
KQU1 240638Z 19007KT 19/11 A2983 RMK A01 T01890112  RH  061%=      5-min Rain = 0
KQU1 240639Z 19007KT 19/11 A2983 RMK A01 T01900113  RH  061%=      5-min Rain = 0
KQU1 240640Z 19007KT 19/11 A2983 RMK A01 T01900113  RH  061%=      5-min Rain = 0
KQU1 240641Z 18009KT 19/11 A2983 RMK A01 T01900111  RH  060%=      5-min Rain = 0
KQU1 240642Z 19007KT 19/11 A2984 RMK A01 T01910112  RH  060%=      5-min Rain = 0
KQU1 240643Z 18007KT 19/11 A2983 RMK A01 T01910111  RH  060%=      5-min Rain = 0
KQU1 240644Z 18006KT 19/11 A2983 RMK A01 T01910110  RH  059%=      5-min Rain = 0
KQU1 240645Z 18007KT 19/11 A2983 RMK A01 T01920111  RH  059%=      5-min Rain = 0
KQU1 240646Z 18008KT 19/11 A2983 RMK A01 T01920110  RH  059%=      5-min Rain = 0
KQU1 240647Z 18008KT 19/11 A2984 RMK A01 T01920110  RH  059%=      5-min Rain = 0
KQU1 240648Z 19008KT 19/11 A2984 RMK A01 T01920111  RH  059%=      5-min Rain = 0
KQU1 240649Z 19006KT 19/11 A2984 RMK A01 T01920110  RH  059%=      5-min Rain = 0
KQU1 240650Z 19006KT 19/11 A2984 RMK A01 T01920111  RH  059%=      5-min Rain = 0
KQU1 240651Z 19007KT 19/11 A2984 RMK A01 T01920112  RH  060%=      5-min Rain = 0
KQU1 240652Z 19006KT 19/11 A2984 RMK A01 T01910113  RH  060%=      5-min Rain = 0
KQU1 240653Z 20005KT 19/11 A2984 RMK A01 T01900113  RH  061%=      5-min Rain = 0
KQU1 240654Z 20006KT 19/11 A2984 RMK A01 T01900113  RH  061%=      5-min Rain = 0
KQU1 240655Z 20007KT 19/11 A2984 RMK A01 T01890114  RH  062%=      5-min Rain = 0
KQU1 240656Z 20006KT 19/11 A2984 RMK A01 T01880113  RH  062%=      5-min Rain = 0
KQU1 240657Z 19006KT 19/11 A2984 RMK A01 T01870113  RH  062%=      5-min Rain = 0
KQU1 240658Z 20007KT 19/11 A2984 RMK A01 T01870113  RH  062%=      5-min Rain = 0
KQU1 240659Z 19008KT 19/11 A2984 RMK A01 T01870112  RH  061%=      5-min Rain = 0
KQU1 240700Z 20008KT 19/11 A2984 RMK A01 T01880112  RH  061%=      5-min Rain = 0
KQU1 240701Z 19008KT 19/11 A2984 RMK A01 T01880111  RH  061%=      5-min Rain = 0
KQU1 240702Z 19008KT 19/11 A2984 RMK A01 T01880111  RH  061%=      5-min Rain = 0
KQU1 240703Z 18008KT 19/11 A2984 RMK A01 T01880112  RH  061%=      5-min Rain = 0
KQU1 240704Z 18008KT 19/11 A2984 RMK A01 T01870111  RH  061%=      5-min Rain = 0
KQU1 240705Z 18009KT 19/11 A2984 RMK A01 T01880110  RH  061%=      5-min Rain = 0
KQU1 240706Z 18009KT 19/11 A2984 RMK A01 T01880109  RH  060%=      5-min Rain = 0
KQU1 240707Z 18009KT 19/11 A2984 RMK A01 T01890110  RH  060%=      5-min Rain = 0
KQU1 240708Z 18009KT 19/11 A2984 RMK A01 T01890110  RH  060%=      5-min Rain = 0
KQU1 240709Z 19009KT 19/11 A2984 RMK A01 T01890109  RH  060%=      5-min Rain = 0
KQU1 240710Z 19009KT 19/11 A2985 RMK A01 T01900108  RH  059%=      5-min Rain = 0
KQU1 240711Z 19009KT 19/11 A2985 RMK A01 T01900107  RH  058%=      5-min Rain = 0
KQU1 240712Z 19009KT 19/11 A2985 RMK A01 T01910107  RH  058%=      5-min Rain = 0
KQU1 240713Z 19010KT 19/11 A2985 RMK A01 T01920107  RH  058%=      5-min Rain = 0
KQU1 240714Z 19009KT 19/11 A2985 RMK A01 T01920107  RH  058%=      5-min Rain = 0
KQU1 240715Z 19010KT 19/11 A2985 RMK A01 T01920107  RH  058%=      5-min Rain = 0
KQU1 240716Z 19009KT 19/11 A2985 RMK A01 T01920108  RH  058%=      5-min Rain = 0
KQU1 240717Z 19010KT 19/11 A2985 RMK A01 T01920107  RH  058%=      5-min Rain = 0
KQU1 240718Z 19010KT 19/11 A2985 RMK A01 T01920107  RH  058%=      5-min Rain = 0
KQU1 240719Z 19010KT 19/11 A2985 RMK A01 T01920107  RH  057%=      5-min Rain = 0
KQU1 240720Z 19010KT 19/11 A2985 RMK A01 T01920106  RH  057%=      5-min Rain = 0
KQU1 240721Z 19010KT 19/11 A2984 RMK A01 T01920106  RH  057%=      5-min Rain = 0
KQU1 240722Z 18009KT 19/11 A2984 RMK A01 T01930105  RH  057%=      5-min Rain = 0
KQU1 240723Z 18009KT 19/11 A2984 RMK A01 T01930105  RH  057%=      5-min Rain = 0
KQU1 240724Z 19009KT 19/11 A2984 RMK A01 T01930106  RH  057%=      5-min Rain = 0
KQU1 240725Z 18009KT 19/11 A2984 RMK A01 T01930106  RH  057%=      5-min Rain = 0
KQU1 240726Z 18008KT 19/11 A2984 RMK A01 T01930106  RH  057%=      5-min Rain = 0
KQU1 240727Z 18009KT 19/11 A2984 RMK A01 T01930106  RH  057%=      5-min Rain = 0
KQU1 240728Z 18009KT 19/11 A2984 RMK A01 T01930106  RH  057%=      5-min Rain = 0
KQU1 240729Z 18010KT 19/11 A2984 RMK A01 T01930106  RH  057%=      5-min Rain = 0
KQU1 240730Z 17010KT 19/11 A2984 RMK A01 T01930106  RH  057%=      5-min Rain = 0
KQU1 240731Z 18008KT 19/11 A2984 RMK A01 T01930106  RH  057%=      5-min Rain = 0
KQU1 240732Z 18008KT 19/11 A2984 RMK A01 T01920107  RH  058%=      5-min Rain = 0
KQU1 240733Z 18009KT 19/11 A2985 RMK A01 T01920107  RH  058%=      5-min Rain = 0
KQU1 240734Z 17009KT 19/11 A2985 RMK A01 T01920107  RH  058%=      5-min Rain = 0
KQU1 240735Z 17009KT 19/11 A2985 RMK A01 T01920106  RH  058%=      5-min Rain = 0
KQU1 240736Z 18009KT 19/11 A2985 RMK A01 T01920107  RH  058%=      5-min Rain = 0
KQU1 240737Z 18010KT 19/11 A2985 RMK A01 T01910107  RH  058%=      5-min Rain = 0
KQU1 240738Z 18009KT 19/11 A2984 RMK A01 T01910106  RH  058%=      5-min Rain = 0
KQU1 240739Z 17009KT 19/11 A2984 RMK A01 T01910107  RH  058%=      5-min Rain = 0
KQU1 240740Z 18009KT 19/11 A2985 RMK A01 T01910106  RH  058%=      5-min Rain = 0
KQU1 240741Z 17009KT 19/11 A2985 RMK A01 T01910107  RH  058%=      5-min Rain = 0
KQU1 240742Z 17009KT 19/11 A2985 RMK A01 T01910107  RH  058%=      5-min Rain = 0
KQU1 240743Z 18008KT 19/11 A2984 RMK A01 T01910107  RH  058%=      5-min Rain = 0
KQU1 240744Z 18008KT 19/11 A2984 RMK A01 T01910108  RH  059%=      5-min Rain = 0
KQU1 240745Z 20007KT 19/11 A2984 RMK A01 T01900107  RH  058%=      5-min Rain = 0
KQU1 240746Z 18009KT 19/11 A2984 RMK A01 T01900105  RH  058%=      5-min Rain = 0
KQU1 240747Z 18008KT 19/11 A2985 RMK A01 T01910105  RH  058%=      5-min Rain = 0
KQU1 240748Z 18008KT 19/11 A2985 RMK A01 T01910105  RH  057%=      5-min Rain = 0
KQU1 240749Z 19008KT 19/11 A2985 RMK A01 T01910106  RH  058%=      5-min Rain = 0
KQU1 240750Z 19007KT 19/11 A2985 RMK A01 T01910107  RH  058%=      5-min Rain = 0
KQU1 240751Z 19006KT 19/11 A2985 RMK A01 T01900107  RH  058%=      5-min Rain = 0
KQU1 240752Z 19006KT 19/11 A2984 RMK A01 T01900107  RH  059%=      5-min Rain = 0
KQU1 240753Z 19006KT 19/11 A2984 RMK A01 T01890107  RH  059%=      5-min Rain = 0
KQU1 240754Z 19005KT 19/11 A2985 RMK A01 T01890108  RH  059%=      5-min Rain = 0
KQU1 240755Z 19007KT 19/11 A2984 RMK A01 T01880107  RH  059%=      5-min Rain = 0
KQU1 240756Z 18007KT 19/11 A2984 RMK A01 T01880107  RH  059%=      5-min Rain = 0
KQU1 240757Z 19006KT 19/11 A2984 RMK A01 T01870107  RH  060%=      5-min Rain = 0
KQU1 240758Z 19007KT 19/11 A2984 RMK A01 T01870107  RH  059%=      5-min Rain = 0
KQU1 240759Z 19006KT 19/11 A2984 RMK A01 T01870107  RH  059%=      5-min Rain = 0
KQU1 240800Z 19006KT 19/11 A2984 RMK A01 T01870107  RH  059%=      5-min Rain = 0
KQU1 240801Z 18006KT 19/11 A2984 RMK A01 T01870107  RH  059%=      5-min Rain = 0
KQU1 240802Z 18006KT 19/11 A2984 RMK A01 T01870107  RH  060%=      5-min Rain = 0
KQU1 240803Z 18007KT 19/11 A2984 RMK A01 T01870107  RH  060%=      5-min Rain = 0
KQU1 240804Z 19007KT 19/11 A2984 RMK A01 T01860107  RH  060%=      5-min Rain = 0
KQU1 240805Z 19008KT 19/11 A2984 RMK A01 T01860105  RH  059%=      5-min Rain = 0
KQU1 240806Z 19008KT 19/11 A2984 RMK A01 T01870106  RH  059%=      5-min Rain = 0
KQU1 240807Z 19008KT 19/11 A2984 RMK A01 T01880105  RH  058%=      5-min Rain = 0
KQU1 240808Z 19008KT 19/10 A2984 RMK A01 T01880104  RH  058%=      5-min Rain = 0
KQU1 240809Z 19008KT 19/10 A2984 RMK A01 T01890104  RH  058%=      5-min Rain = 0
KQU1 240810Z 18008KT 19/11 A2984 RMK A01 T01890105  RH  058%=      5-min Rain = 0
KQU1 240811Z 18007KT 19/10 A2984 RMK A01 T01900104  RH  058%=      5-min Rain = 0
KQU1 240812Z 19007KT 19/11 A2984 RMK A01 T01890105  RH  058%=      5-min Rain = 0
KQU1 240813Z 18007KT 19/11 A2984 RMK A01 T01890105  RH  058%=      5-min Rain = 0
KQU1 240814Z 18007KT 19/11 A2984 RMK A01 T01890106  RH  059%=      5-min Rain = 0
KQU1 240815Z 18007KT 19/11 A2984 RMK A01 T01880107  RH  059%=      5-min Rain = 0
KQU1 240816Z 18007KT 19/11 A2984 RMK A01 T01870107  RH  060%=      5-min Rain = 0
KQU1 240817Z 18007KT 19/11 A2984 RMK A01 T01860106  RH  059%=      5-min Rain = 0
KQU1 240818Z 19006KT 19/11 A2984 RMK A01 T01860106  RH  059%=      5-min Rain = 0
KQU1 240819Z 19006KT 19/11 A2984 RMK A01 T01860106  RH  060%=      5-min Rain = 0
KQU1 240820Z 19005KT 19/11 A2984 RMK A01 T01860106  RH  060%=      5-min Rain = 0
KQU1 240821Z 20004KT 19/11 A2984 RMK A01 T01850107  RH  060%=      5-min Rain = 0
KQU1 240822Z 21005KT 19/11 A2984 RMK A01 T01850108  RH  061%=      5-min Rain = 0
KQU1 240823Z 21005KT 18/11 A2984 RMK A01 T01840108  RH  061%=      5-min Rain = 0
KQU1 240824Z 21006KT 18/11 A2984 RMK A01 T01820109  RH  062%=      5-min Rain = 0
KQU1 240825Z 21006KT 18/11 A2984 RMK A01 T01810109  RH  063%=      5-min Rain = 0
KQU1 240826Z 20006KT 18/11 A2984 RMK A01 T01800108  RH  063%=      5-min Rain = 0
KQU1 240827Z 21007KT 18/11 A2984 RMK A01 T01790107  RH  063%=      5-min Rain = 0
KQU1 240828Z 21008KT 18/11 A2984 RMK A01 T01790108  RH  063%=      5-min Rain = 0
KQU1 240829Z 20008KT 18/11 A2984 RMK A01 T01780109  RH  064%=      5-min Rain = 0
KQU1 240830Z 20007KT 18/11 A2984 RMK A01 T01770108  RH  064%=      5-min Rain = 0
KQU1 240831Z 20006KT 18/11 A2984 RMK A01 T01770109  RH  064%=      5-min Rain = 0
KQU1 240832Z 20006KT 18/11 A2984 RMK A01 T01770109  RH  065%=      5-min Rain = 0
KQU1 240833Z 20006KT 18/11 A2984 RMK A01 T01760110  RH  065%=      5-min Rain = 0
KQU1 240834Z 20006KT 18/11 A2984 RMK A01 T01750110  RH  065%=      5-min Rain = 0
KQU1 240835Z 20007KT 18/11 A2984 RMK A01 T01750109  RH  065%=      5-min Rain = 0
KQU1 240836Z 21007KT 18/11 A2984 RMK A01 T01750110  RH  066%=      5-min Rain = 0
KQU1 240837Z 21007KT 18/11 A2984 RMK A01 T01750110  RH  066%=      5-min Rain = 0
KQU1 240838Z 20006KT 18/11 A2984 RMK A01 T01750110  RH  066%=      5-min Rain = 0
KQU1 240839Z 20006KT 18/11 A2984 RMK A01 T01750109  RH  065%=      5-min Rain = 0
KQU1 240840Z 21005KT 18/11 A2984 RMK A01 T01750110  RH  065%=      5-min Rain = 0
KQU1 240841Z 20006KT 18/11 A2984 RMK A01 T01760109  RH  065%=      5-min Rain = 0
KQU1 240842Z 19006KT 18/11 A2984 RMK A01 T01760110  RH  065%=      5-min Rain = 0
KQU1 240843Z 20006KT 18/11 A2984 RMK A01 T01760109  RH  065%=      5-min Rain = 0
KQU1 240844Z 20007KT 18/11 A2984 RMK A01 T01760110  RH  065%=      5-min Rain = 0
KQU1 240845Z 19006KT 18/11 A2984 RMK A01 T01760111  RH  066%=      5-min Rain = 0
KQU1 240846Z 18005KT 18/11 A2984 RMK A01 T01760111  RH  066%=      5-min Rain = 0
KQU1 240847Z 19005KT 18/11 A2984 RMK A01 T01750111  RH  066%=      5-min Rain = 0
KQU1 240848Z 20006KT 17/11 A2984 RMK A01 T01740112  RH  067%=      5-min Rain = 0
KQU1 240849Z 20006KT 17/11 A2984 RMK A01 T01730112  RH  067%=      5-min Rain = 0
KQU1 240850Z 20006KT 17/11 A2984 RMK A01 T01730111  RH  067%=      5-min Rain = 0
KQU1 240851Z 21006KT 17/11 A2984 RMK A01 T01740111  RH  067%=      5-min Rain = 0
KQU1 240852Z 20005KT 17/11 A2984 RMK A01 T01740111  RH  066%=      5-min Rain = 0
KQU1 240853Z 20006KT 18/11 A2984 RMK A01 T01750111  RH  066%=      5-min Rain = 0
KQU1 240854Z 21007KT 18/11 A2984 RMK A01 T01750112  RH  066%=      5-min Rain = 0
KQU1 240855Z 21006KT 18/11 A2984 RMK A01 T01750112  RH  066%=      5-min Rain = 0
KQU1 240856Z 21007KT 18/11 A2984 RMK A01 T01750112  RH  066%=      5-min Rain = 0
KQU1 240857Z 21007KT 18/11 A2984 RMK A01 T01750111  RH  066%=      5-min Rain = 0
KQU1 240858Z 21007KT 18/11 A2984 RMK A01 T01750111  RH  066%=      5-min Rain = 0
KQU1 240859Z 21008KT 18/11 A2985 RMK A01 T01750112  RH  066%=      5-min Rain = 0
KQU1 240900Z 21008KT 18/11 A2985 RMK A01 T01750112  RH  066%=      5-min Rain = 0
KQU1 240901Z 21008KT 18/11 A2985 RMK A01 T01750112  RH  067%=      5-min Rain = 0
KQU1 240902Z 22009KT 17/11 A2985 RMK A01 T01740112  RH  067%=      5-min Rain = 0
KQU1 240903Z 22009KT 17/11 A2985 RMK A01 T01740112  RH  067%=      5-min Rain = 0
KQU1 240904Z 22007KT 17/11 A2984 RMK A01 T01740112  RH  067%=      5-min Rain = 0
KQU1 240905Z 21007KT 17/11 A2984 RMK A01 T01740113  RH  067%=      5-min Rain = 0
KQU1 240906Z 21009KT 17/11 A2985 RMK A01 T01740113  RH  067%=      5-min Rain = 0
KQU1 240907Z 20010KT 17/11 A2985 RMK A01 T01740113  RH  067%=      5-min Rain = 0
KQU1 240908Z 21009KT 17/11 A2985 RMK A01 T01740113  RH  067%=      5-min Rain = 0
KQU1 240909Z 21009KT 17/11 A2985 RMK A01 T01740113  RH  067%=      5-min Rain = 0
KQU1 240910Z 20008KT 17/11 A2985 RMK A01 T01740113  RH  067%=      5-min Rain = 0
KQU1 240911Z 21008KT 17/11 A2984 RMK A01 T01740113  RH  067%=      5-min Rain = 0
KQU1 240912Z 21008KT 17/11 A2985 RMK A01 T01740113  RH  067%=      5-min Rain = 0
KQU1 240913Z 20009KT 17/11 A2985 RMK A01 T01740113  RH  067%=      5-min Rain = 0
KQU1 240914Z 20008KT 17/11 A2985 RMK A01 T01740114  RH  068%=      5-min Rain = 0
KQU1 240915Z 20008KT 17/11 A2985 RMK A01 T01740114  RH  068%=      5-min Rain = 0
KQU1 240916Z 20008KT 17/12 A2985 RMK A01 T01730115  RH  068%=      5-min Rain = 0
KQU1 240917Z 20008KT 17/12 A2985 RMK A01 T01720115  RH  069%=      5-min Rain = 0
KQU1 240918Z 21007KT 17/12 A2985 RMK A01 T01720115  RH  069%=      5-min Rain = 0
KQU1 240919Z 21007KT 17/12 A2984 RMK A01 T01710115  RH  070%=      5-min Rain = 0
KQU1 240920Z 21007KT 17/12 A2984 RMK A01 T01700115  RH  070%=      5-min Rain = 0
KQU1 240921Z 21007KT 17/12 A2984 RMK A01 T01700115  RH  070%=      5-min Rain = 0
KQU1 240922Z 21007KT 17/12 A2984 RMK A01 T01700115  RH  070%=      5-min Rain = 0
KQU1 240923Z 21008KT 17/12 A2984 RMK A01 T01690115  RH  070%=      5-min Rain = 0
KQU1 240924Z 21007KT 17/12 A2984 RMK A01 T01690115  RH  070%=      5-min Rain = 0
KQU1 240925Z 21007KT 17/12 A2984 RMK A01 T01690115  RH  070%=      5-min Rain = 0
KQU1 240926Z 21007KT 17/12 A2984 RMK A01 T01690115  RH  071%=      5-min Rain = 0
KQU1 240927Z 21007KT 17/12 A2984 RMK A01 T01690116  RH  071%=      5-min Rain = 0
KQU1 240928Z 21006KT 17/12 A2984 RMK A01 T01690116  RH  071%=      5-min Rain = 0
KQU1 240929Z 21008KT 17/12 A2984 RMK A01 T01680116  RH  071%=      5-min Rain = 0
KQU1 240930Z 21007KT 17/12 A2984 RMK A01 T01680116  RH  071%=      5-min Rain = 0
KQU1 240931Z 21007KT 17/12 A2984 RMK A01 T01680116  RH  071%=      5-min Rain = 0
KQU1 240932Z 21008KT 17/12 A2984 RMK A01 T01680116  RH  071%=      5-min Rain = 0
KQU1 240933Z 21008KT 17/12 A2984 RMK A01 T01680116  RH  071%=      5-min Rain = 0
KQU1 240934Z 21007KT 17/12 A2984 RMK A01 T01690116  RH  071%=      5-min Rain = 0
KQU1 240935Z 21007KT 17/12 A2984 RMK A01 T01690116  RH  071%=      5-min Rain = 0
KQU1 240936Z 21007KT 17/12 A2984 RMK A01 T01690116  RH  071%=      5-min Rain = 0
KQU1 240937Z 21007KT 17/12 A2984 RMK A01 T01690117  RH  071%=      5-min Rain = 0
KQU1 240938Z 21007KT 17/12 A2984 RMK A01 T01690116  RH  071%=      5-min Rain = 0
KQU1 240939Z 21006KT 17/12 A2984 RMK A01 T01690116  RH  071%=      5-min Rain = 0
KQU1 240940Z 21007KT 17/12 A2984 RMK A01 T01690116  RH  071%=      5-min Rain = 0
KQU1 240941Z 21007KT 17/12 A2984 RMK A01 T01690116  RH  071%=      5-min Rain = 0
KQU1 240942Z 21008KT 17/12 A2984 RMK A01 T01700116  RH  071%=      5-min Rain = 0
KQU1 240943Z 21007KT 17/12 A2984 RMK A01 T01700117  RH  071%=      5-min Rain = 0
KQU1 240944Z 21006KT 17/12 A2984 RMK A01 T01700117  RH  071%=      5-min Rain = 0
KQU1 240945Z 21006KT 17/12 A2984 RMK A01 T01700117  RH  071%=      5-min Rain = 0
KQU1 240946Z 21007KT 17/12 A2984 RMK A01 T01690117  RH  071%=      5-min Rain = 0
KQU1 240947Z 21008KT 17/12 A2984 RMK A01 T01690117  RH  071%=      5-min Rain = 0
KQU1 240948Z 21008KT 17/12 A2984 RMK A01 T01690117  RH  071%=      5-min Rain = 0
KQU1 240949Z 21007KT 17/12 A2984 RMK A01 T01690117  RH  071%=      5-min Rain = 0
KQU1 240950Z 21008KT 17/12 A2984 RMK A01 T01680116  RH  071%=      5-min Rain = 0
KQU1 240951Z 21008KT 17/12 A2984 RMK A01 T01690116  RH  071%=      5-min Rain = 0
KQU1 240952Z 21008KT 17/12 A2984 RMK A01 T01690116  RH  071%=      5-min Rain = 0
KQU1 240953Z 20007KT 17/12 A2984 RMK A01 T01690116  RH  071%=      5-min Rain = 0
KQU1 240954Z 20007KT 17/12 A2984 RMK A01 T01690116  RH  071%=      5-min Rain = 0
KQU1 240955Z 20008KT 17/12 A2984 RMK A01 T01690117  RH  071%=      5-min Rain = 0
KQU1 240956Z 20008KT 17/12 A2984 RMK A01 T01690117  RH  071%=      5-min Rain = 0
KQU1 240957Z 20008KT 17/12 A2984 RMK A01 T01690117  RH  071%=      5-min Rain = 0
KQU1 240958Z 20008KT 17/12 A2983 RMK A01 T01690116  RH  071%=      5-min Rain = 0
KQU1 240959Z 20009KT 17/12 A2983 RMK A01 T01690116  RH  071%=      5-min Rain = 0
KQU1 241000Z 20010KT 17/12 A2983 RMK A01 T01700115  RH  070%=      5-min Rain = 0
KQU1 241001Z 21010KT 17/12 A2984 RMK A01 T01700116  RH  070%=      5-min Rain = 0
KQU1 241002Z 20008KT 17/12 A2983 RMK A01 T01700116  RH  070%=      5-min Rain = 0
KQU1 241003Z 20009KT 17/12 A2983 RMK A01 T01710116  RH  070%=      5-min Rain = 0
KQU1 241004Z 20009KT 17/12 A2983 RMK A01 T01710116  RH  070%=      5-min Rain = 0
KQU1 241005Z 20008KT 17/12 A2983 RMK A01 T01710116  RH  070%=      5-min Rain = 0
KQU1 241006Z 20009KT 17/12 A2984 RMK A01 T01710116  RH  070%=      5-min Rain = 0
KQU1 241007Z 20009KT 17/12 A2984 RMK A01 T01710116  RH  070%=      5-min Rain = 0
KQU1 241008Z 21009KT 17/12 A2984 RMK A01 T01710116  RH  070%=      5-min Rain = 0
KQU1 241009Z 20009KT 17/12 A2984 RMK A01 T01700116  RH  070%=      5-min Rain = 0
KQU1 241010Z 20008KT 17/12 A2983 RMK A01 T01700116  RH  070%=      5-min Rain = 0
KQU1 241011Z 20008KT 17/12 A2983 RMK A01 T01700116  RH  070%=      5-min Rain = 0
KQU1 241012Z 20008KT 17/12 A2983 RMK A01 T01700116  RH  070%=      5-min Rain = 0
KQU1 241013Z 20008KT 17/12 A2983 RMK A01 T01700116  RH  070%=      5-min Rain = 0
KQU1 241014Z 20008KT 17/12 A2984 RMK A01 T01700116  RH  071%=      5-min Rain = 0
KQU1 241015Z 21009KT 17/12 A2984 RMK A01 T01700116  RH  070%=      5-min Rain = 0
KQU1 241016Z 21009KT 17/12 A2984 RMK A01 T01700115  RH  070%=      5-min Rain = 0
KQU1 241017Z 21008KT 17/12 A2983 RMK A01 T01700115  RH  070%=      5-min Rain = 0
KQU1 241018Z 20008KT 17/12 A2983 RMK A01 T01700115  RH  070%=      5-min Rain = 0
KQU1 241019Z 21009KT 17/12 A2984 RMK A01 T01700115  RH  070%=      5-min Rain = 0
KQU1 241020Z 21009KT 17/12 A2984 RMK A01 T01700116  RH  070%=      5-min Rain = 0
KQU1 241021Z 21009KT 17/12 A2984 RMK A01 T01700116  RH  070%=      5-min Rain = 0
KQU1 241022Z 21009KT 17/12 A2984 RMK A01 T01700116  RH  070%=      5-min Rain = 0
KQU1 241023Z 21009KT 17/12 A2983 RMK A01 T01700116  RH  071%=      5-min Rain = 0
KQU1 241024Z 20009KT 17/12 A2983 RMK A01 T01690116  RH  071%=      5-min Rain = 0
KQU1 241025Z 20009KT 17/12 A2983 RMK A01 T01690116  RH  071%=      5-min Rain = 0
KQU1 241026Z 20009KT 17/12 A2983 RMK A01 T01690116  RH  071%=      5-min Rain = 0
KQU1 241027Z 20010KT 17/12 A2983 RMK A01 T01680116  RH  071%=      5-min Rain = 0
KQU1 241028Z 21010KT 17/12 A2983 RMK A01 T01680116  RH  071%=      5-min Rain = 0
KQU1 241029Z 21010KT 17/12 A2983 RMK A01 T01680116  RH  071%=      5-min Rain = 0
KQU1 241030Z 21009KT 17/12 A2983 RMK A01 T01680116  RH  071%=      5-min Rain = 0
KQU1 241031Z 20008KT 17/12 A2983 RMK A01 T01680116  RH  071%=      5-min Rain = 0
KQU1 241032Z 20009KT 17/12 A2983 RMK A01 T01680117  RH  072%=      5-min Rain = 0
KQU1 241033Z 20010KT 17/12 A2983 RMK A01 T01670117  RH  072%=      5-min Rain = 0
KQU1 241034Z 20009KT 17/12 A2983 RMK A01 T01670117  RH  072%=      5-min Rain = 0
KQU1 241035Z 21009KT 17/12 A2983 RMK A01 T01670117  RH  073%=      5-min Rain = 0
KQU1 241036Z 21010KT 17/12 A2984 RMK A01 T01660117  RH  073%=      5-min Rain = 0
KQU1 241037Z 21010KT 17/12 A2984 RMK A01 T01660117  RH  073%=      5-min Rain = 0
KQU1 241038Z 21010KT 17/12 A2984 RMK A01 T01660117  RH  073%=      5-min Rain = 0
KQU1 241039Z 20010KT 17/12 A2983 RMK A01 T01660117  RH  073%=      5-min Rain = 0
KQU1 241040Z 20009KT 17/12 A2983 RMK A01 T01670118  RH  073%=      5-min Rain = 0
KQU1 241041Z 20010KT 17/12 A2983 RMK A01 T01670118  RH  073%=      5-min Rain = 0
KQU1 241042Z 21010KT 17/12 A2983 RMK A01 T01670118  RH  073%=      5-min Rain = 0
KQU1 241043Z 21010KT 17/12 A2983 RMK A01 T01660118  RH  073%=      5-min Rain = 0
KQU1 241044Z 21011KT 17/12 A2984 RMK A01 T01660118  RH  073%=      5-min Rain = 0
KQU1 241045Z 21011KT 17/12 A2984 RMK A01 T01670118  RH  073%=      5-min Rain = 0
KQU1 241046Z 21011KT 17/12 A2984 RMK A01 T01670117  RH  072%=      5-min Rain = 0
KQU1 241047Z 21012KT 17/12 A2984 RMK A01 T01680117  RH  072%=      5-min Rain = 0
KQU1 241048Z 21013KT 17/12 A2984 RMK A01 T01680117  RH  072%=      5-min Rain = 0
KQU1 241049Z 21013KT 17/12 A2984 RMK A01 T01690117  RH  072%=      5-min Rain = 0
KQU1 241050Z 21011KT 17/12 A2984 RMK A01 T01690118  RH  072%=      5-min Rain = 0
KQU1 241051Z 21012KT 17/12 A2984 RMK A01 T01680118  RH  072%=      5-min Rain = 0
KQU1 241052Z 21012KT 17/12 A2984 RMK A01 T01680117  RH  072%=      5-min Rain = 0
KQU1 241053Z 21013KT 17/12 A2984 RMK A01 T01690117  RH  071%=      5-min Rain = 0
KQU1 241054Z 21013KT 17/12 A2984 RMK A01 T01700116  RH  070%=      5-min Rain = 0
KQU1 241055Z 21013KT 17/12 A2984 RMK A01 T01710116  RH  070%=      5-min Rain = 0
KQU1 241056Z 21012KT 17/12 A2984 RMK A01 T01720116  RH  070%=      5-min Rain = 0
KQU1 241057Z 21012KT 17/12 A2984 RMK A01 T01720116  RH  070%=      5-min Rain = 0
KQU1 241058Z 21012KT 17/12 A2984 RMK A01 T01720116  RH  070%=      5-min Rain = 0
KQU1 241059Z 21011KT 17/12 A2984 RMK A01 T01720117  RH  070%=      5-min Rain = 0
KQU1 241100Z 21012KT 17/12 A2984 RMK A01 T01710117  RH  070%=      5-min Rain = 0
KQU1 241101Z 21011KT 17/12 A2984 RMK A01 T01710117  RH  071%=      5-min Rain = 0
KQU1 241102Z 21011KT 17/12 A2984 RMK A01 T01700117  RH  071%=      5-min Rain = 0
KQU1 241103Z 21011KT 17/12 A2984 RMK A01 T01700117  RH  071%=      5-min Rain = 0
KQU1 241104Z 21010KT 17/12 A2984 RMK A01 T01700117  RH  071%=      5-min Rain = 0
KQU1 241105Z 21011KT 17/12 A2984 RMK A01 T01690117  RH  071%=      5-min Rain = 0
KQU1 241106Z 21011KT 17/12 A2984 RMK A01 T01690117  RH  071%=      5-min Rain = 0
KQU1 241107Z 20010KT 17/12 A2984 RMK A01 T01690118  RH  072%=      5-min Rain = 0
KQU1 241108Z 20010KT 17/12 A2984 RMK A01 T01690118  RH  072%=      5-min Rain = 0
KQU1 241109Z 20011KT 17/12 A2984 RMK A01 T01680118  RH  072%=      5-min Rain = 0
KQU1 241110Z 21010KT 17/12 A2984 RMK A01 T01670119  RH  073%=      5-min Rain = 0
KQU1 241111Z 21011KT 17/12 A2984 RMK A01 T01670118  RH  073%=      5-min Rain = 0
KQU1 241112Z 21011KT 17/12 A2984 RMK A01 T01660118  RH  073%=      5-min Rain = 0
KQU1 241113Z 21010KT 17/12 A2984 RMK A01 T01660118  RH  074%=      5-min Rain = 0
KQU1 241114Z 21010KT 17/12 A2984 RMK A01 T01650118  RH  074%=      5-min Rain = 0
KQU1 241115Z 21010KT 17/12 A2984 RMK A01 T01650118  RH  074%=      5-min Rain = 0
KQU1 241116Z 21010KT 17/12 A2983 RMK A01 T01650118  RH  074%=      5-min Rain = 0
KQU1 241117Z 21010KT 17/12 A2983 RMK A01 T01650118  RH  073%=      5-min Rain = 0
KQU1 241118Z 21010KT 17/12 A2983 RMK A01 T01660118  RH  073%=      5-min Rain = 0
KQU1 241119Z 21011KT 17/12 A2983 RMK A01 T01660118  RH  073%=      5-min Rain = 0
KQU1 241120Z 21012KT 17/12 A2983 RMK A01 T01660118  RH  073%=      5-min Rain = 0
KQU1 241121Z 21012KT 17/12 A2983 RMK A01 T01660118  RH  073%=      5-min Rain = 0
KQU1 241122Z 21011KT 17/12 A2983 RMK A01 T01660118  RH  073%=      5-min Rain = 0
KQU1 241123Z 21012KT 17/12 A2983 RMK A01 T01670118  RH  073%=      5-min Rain = 0
KQU1 241124Z 21011KT 17/12 A2983 RMK A01 T01670119  RH  073%=      5-min Rain = 0
KQU1 241125Z 21012KT 17/12 A2983 RMK A01 T01670119  RH  073%=      5-min Rain = 0
KQU1 241126Z 21012KT 17/12 A2983 RMK A01 T01670118  RH  073%=      5-min Rain = 0
KQU1 241127Z 21012KT 17/12 A2983 RMK A01 T01670118  RH  073%=      5-min Rain = 0
KQU1 241128Z 21013KT 17/12 A2983 RMK A01 T01670119  RH  073%=      5-min Rain = 0
KQU1 241129Z 21012KT 17/12 A2983 RMK A01 T01670119  RH  073%=      5-min Rain = 0
KQU1 241130Z 21012KT 17/12 A2983 RMK A01 T01670119  RH  073%=      5-min Rain = 0
KQU1 241131Z 21012KT 17/12 A2983 RMK A01 T01660119  RH  074%=      5-min Rain = 0
KQU1 241132Z 21012KT 17/12 A2983 RMK A01 T01660119  RH  074%=      5-min Rain = 0
KQU1 241133Z 21012KT 17/12 A2983 RMK A01 T01650119  RH  074%=      5-min Rain = 0
KQU1 241134Z 21012KT 17/12 A2983 RMK A01 T01650119  RH  074%=      5-min Rain = 0
KQU1 241135Z 21012KT 17/12 A2983 RMK A01 T01650119  RH  074%=      5-min Rain = 0
KQU1 241136Z 21012KT 17/12 A2983 RMK A01 T01650119  RH  074%=      5-min Rain = 0
KQU1 241137Z 21012KT 17/12 A2983 RMK A01 T01650119  RH  074%=      5-min Rain = 0
KQU1 241138Z 21012KT 16/12 A2983 RMK A01 T01640119  RH  075%=      5-min Rain = 0
KQU1 241139Z 22011KT 16/12 A2983 RMK A01 T01640119  RH  075%=      5-min Rain = 0
KQU1 241140Z 21011KT 16/12 A2983 RMK A01 T01640119  RH  075%=      5-min Rain = 0
KQU1 241141Z 22011KT 16/12 A2983 RMK A01 T01630119  RH  075%=      5-min Rain = 0
KQU1 241142Z 22011KT 16/12 A2983 RMK A01 T01630120  RH  075%=      5-min Rain = 0
KQU1 241143Z 22010KT 16/12 A2983 RMK A01 T01630120  RH  076%=      5-min Rain = 0
KQU1 241144Z 22011KT 16/12 A2983 RMK A01 T01630119  RH  076%=      5-min Rain = 0
KQU1 241145Z 21011KT 16/12 A2983 RMK A01 T01630119  RH  075%=      5-min Rain = 0
KQU1 241146Z 21011KT 16/12 A2983 RMK A01 T01630119  RH  075%=      5-min Rain = 0
KQU1 241147Z 21011KT 16/12 A2983 RMK A01 T01630119  RH  075%=      5-min Rain = 0
KQU1 241148Z 21011KT 16/12 A2983 RMK A01 T01640120  RH  075%=      5-min Rain = 0
KQU1 241149Z 21011KT 16/12 A2983 RMK A01 T01640120  RH  075%=      5-min Rain = 0
KQU1 241150Z 21012KT 16/12 A2983 RMK A01 T01640119  RH  075%=      5-min Rain = 0
KQU1 241151Z 21012KT 16/12 A2983 RMK A01 T01640119  RH  075%=      5-min Rain = 0
KQU1 241152Z 21012KT 16/12 A2983 RMK A01 T01640119  RH  075%=      5-min Rain = 0
KQU1 241153Z 21011KT 16/12 A2983 RMK A01 T01640119  RH  075%=      5-min Rain = 0
KQU1 241154Z 21012KT 16/12 A2983 RMK A01 T01640119  RH  075%=      5-min Rain = 0
KQU1 241155Z 21012KT 16/12 A2983 RMK A01 T01640119  RH  075%=      5-min Rain = 0
KQU1 241156Z 21011KT 16/12 A2983 RMK A01 T01640119  RH  075%=      5-min Rain = 0
KQU1 241157Z 21011KT 16/12 A2983 RMK A01 T01640119  RH  075%=      5-min Rain = 0
KQU1 241158Z 21012KT 16/12 A2983 RMK A01 T01640119  RH  075%=      5-min Rain = 0
KQU1 241159Z 21012KT 16/12 A2983 RMK A01 T01640119  RH  075%=      5-min Rain = 0
KQU1 241200Z 21012KT 16/12 A2983 RMK A01 T01640120  RH  075%=      5-min Rain = 0
KQU1 241201Z 21012KT 16/12 A2983 RMK A01 T01640119  RH  075%=      5-min Rain = 0
KQU1 241202Z 21012KT 16/12 A2983 RMK A01 T01640119  RH  075%=      5-min Rain = 0
KQU1 241203Z 21012KT 16/12 A2983 RMK A01 T01640119  RH  075%=      5-min Rain = 0
KQU1 241204Z 21011KT 16/12 A2983 RMK A01 T01630119  RH  075%=      5-min Rain = 0
KQU1 241205Z 21012KT 16/12 A2983 RMK A01 T01630119  RH  075%=      5-min Rain = 0
KQU1 241206Z 21012KT 16/12 A2983 RMK A01 T01630119  RH  075%=      5-min Rain = 0
KQU1 241207Z 20012KT 16/12 A2983 RMK A01 T01630119  RH  075%=      5-min Rain = 0
KQU1 241208Z 21012KT 16/12 A2983 RMK A01 T01630119  RH  075%=      5-min Rain = 0
KQU1 241209Z 21012KT 16/12 A2983 RMK A01 T01630120  RH  075%=      5-min Rain = 0
KQU1 241210Z 20012KT 16/12 A2983 RMK A01 T01630120  RH  075%=      5-min Rain = 0
KQU1 241211Z 20012KT 16/12 A2983 RMK A01 T01630120  RH  075%=      5-min Rain = 0
KQU1 241212Z 21011KT 16/12 A2983 RMK A01 T01630120  RH  076%=      5-min Rain = 0
KQU1 241213Z 20011KT 16/12 A2983 RMK A01 T01630120  RH  076%=      5-min Rain = 0
KQU1 241214Z 20011KT 16/12 A2983 RMK A01 T01630120  RH  076%=      5-min Rain = 0
KQU1 241215Z 20011KT 16/12 A2983 RMK A01 T01630120  RH  076%=      5-min Rain = 0
KQU1 241216Z 20011KT 16/12 A2983 RMK A01 T01620120  RH  076%=      5-min Rain = 0
KQU1 241217Z 20011KT 16/12 A2983 RMK A01 T01620121  RH  076%=      5-min Rain = 0
KQU1 241218Z 20012KT 16/12 A2983 RMK A01 T01620121  RH  076%=      5-min Rain = 0
KQU1 241219Z 20011KT 16/12 A2983 RMK A01 T01620121  RH  076%=      5-min Rain = 0
KQU1 241220Z 20011KT 16/12 A2983 RMK A01 T01620121  RH  076%=      5-min Rain = 0
KQU1 241221Z 21012KT 16/12 A2983 RMK A01 T01620120  RH  076%=      5-min Rain = 0
KQU1 241222Z 20011KT 16/12 A2983 RMK A01 T01630120  RH  076%=      5-min Rain = 0
KQU1 241223Z 20011KT 16/12 A2983 RMK A01 T01630120  RH  076%=      5-min Rain = 0
KQU1 241224Z 20012KT 16/12 A2984 RMK A01 T01630121  RH  076%=      5-min Rain = 0
KQU1 241225Z 21012KT 16/12 A2984 RMK A01 T01640121  RH  075%=      5-min Rain = 0
KQU1 241226Z 20012KT 17/12 A2984 RMK A01 T01650121  RH  075%=      5-min Rain = 0
KQU1 241227Z 20011KT 17/12 A2984 RMK A01 T01660121  RH  075%=      5-min Rain = 0
KQU1 241228Z 20012KT 17/12 A2984 RMK A01 T01670122  RH  075%=      5-min Rain = 0
KQU1 241229Z 21011KT 17/12 A2984 RMK A01 T01680122  RH  074%=      5-min Rain = 0
KQU1 241230Z 20011KT 17/12 A2984 RMK A01 T01690122  RH  074%=      5-min Rain = 0
KQU1 241231Z 20011KT 17/12 A2984 RMK A01 T01700122  RH  074%=      5-min Rain = 0
KQU1 241232Z 20011KT 17/12 A2984 RMK A01 T01710123  RH  073%=      5-min Rain = 0
KQU1 241233Z 20011KT 17/12 A2984 RMK A01 T01710123  RH  073%=      5-min Rain = 0
KQU1 241234Z 20011KT 17/12 A2984 RMK A01 T01720123  RH  073%=      5-min Rain = 0
KQU1 241235Z 20011KT 17/12 A2984 RMK A01 T01730124  RH  073%=      5-min Rain = 0
KQU1 241236Z 20010KT 17/12 A2984 RMK A01 T01730124  RH  073%=      5-min Rain = 0
KQU1 241237Z 20011KT 17/12 A2984 RMK A01 T01740124  RH  072%=      5-min Rain = 0
KQU1 241238Z 20012KT 17/12 A2984 RMK A01 T01740123  RH  072%=      5-min Rain = 0
KQU1 241239Z 20012KT 17/12 A2984 RMK A01 T01740123  RH  072%=      5-min Rain = 0
KQU1 241240Z 20011KT 17/12 A2984 RMK A01 T01740124  RH  072%=      5-min Rain = 0
KQU1 241241Z 20011KT 18/12 A2984 RMK A01 T01750124  RH  072%=      5-min Rain = 0
KQU1 241242Z 20011KT 18/12 A2984 RMK A01 T01750124  RH  072%=      5-min Rain = 0
KQU1 241243Z 20011KT 18/12 A2984 RMK A01 T01760124  RH  072%=      5-min Rain = 0
KQU1 241244Z 20011KT 18/13 A2984 RMK A01 T01770125  RH  072%=      5-min Rain = 0
KQU1 241245Z 20011KT 18/13 A2984 RMK A01 T01770126  RH  072%=      5-min Rain = 0
KQU1 241246Z 20011KT 18/13 A2984 RMK A01 T01780125  RH  071%=      5-min Rain = 0
KQU1 241247Z 20010KT 18/13 A2984 RMK A01 T01780125  RH  071%=      5-min Rain = 0
KQU1 241248Z 20012KT 18/12 A2984 RMK A01 T01790124  RH  070%=      5-min Rain = 0
KQU1 241249Z 20011KT 18/12 A2984 RMK A01 T01790124  RH  070%=      5-min Rain = 0
KQU1 241250Z 20012KT 18/12 A2984 RMK A01 T01790124  RH  070%=      5-min Rain = 0
KQU1 241251Z 20012KT 18/12 A2984 RMK A01 T01800124  RH  070%=      5-min Rain = 0
KQU1 241252Z 20010KT 18/13 A2984 RMK A01 T01800125  RH  070%=      5-min Rain = 0
KQU1 241253Z 20011KT 18/13 A2984 RMK A01 T01810125  RH  070%=      5-min Rain = 0
KQU1 241254Z 20012KT 18/12 A2984 RMK A01 T01820124  RH  069%=      5-min Rain = 0
KQU1 241255Z 19011KT 18/12 A2984 RMK A01 T01820124  RH  069%=      5-min Rain = 0
KQU1 241256Z 20012KT 18/12 A2984 RMK A01 T01830124  RH  068%=      5-min Rain = 0
KQU1 241257Z 20012KT 18/12 A2984 RMK A01 T01830124  RH  068%=      5-min Rain = 0
KQU1 241258Z 20012KT 18/12 A2984 RMK A01 T01840124  RH  068%=      5-min Rain = 0
KQU1 241259Z 20013KT 19/12 A2984 RMK A01 T01850123  RH  067%=      5-min Rain = 0
KQU1 241300Z 20012KT 19/12 A2984 RMK A01 T01850124  RH  068%=      5-min Rain = 0
KQU1 241301Z 20013KT 19/12 A2984 RMK A01 T01850123  RH  067%=      5-min Rain = 0
KQU1 241302Z 20012KT 19/12 A2984 RMK A01 T01860123  RH  067%=      5-min Rain = 0
KQU1 241303Z 20012KT 19/12 A2984 RMK A01 T01870124  RH  067%=      5-min Rain = 0
KQU1 241304Z 20013KT 19/12 A2984 RMK A01 T01870123  RH  066%=      5-min Rain = 0
KQU1 241305Z 20015KT 19/12 A2984 RMK A01 T01870123  RH  066%=      5-min Rain = 0
KQU1 241306Z 20013KT 19/12 A2984 RMK A01 T01870123  RH  066%=      5-min Rain = 0
KQU1 241307Z 20013KT 19/12 A2984 RMK A01 T01870124  RH  066%=      5-min Rain = 0
KQU1 241308Z 21011KT 19/13 A2984 RMK A01 T01870125  RH  067%=      5-min Rain = 0
KQU1 241309Z 21011KT 19/12 A2984 RMK A01 T01880124  RH  067%=      5-min Rain = 0
KQU1 241310Z 21011KT 19/13 A2984 RMK A01 T01870125  RH  067%=      5-min Rain = 0
KQU1 241311Z 21010KT 19/13 A2984 RMK A01 T01880126  RH  067%=      5-min Rain = 0
KQU1 241312Z 20010KT 19/13 A2984 RMK A01 T01880126  RH  067%=      5-min Rain = 0
KQU1 241313Z 21011KT 19/13 A2983 RMK A01 T01880126  RH  067%=      5-min Rain = 0
KQU1 241314Z 21010KT 19/13 A2983 RMK A01 T01890128  RH  068%=      5-min Rain = 0
KQU1 241315Z 21012KT 19/13 A2983 RMK A01 T01900127  RH  067%=      5-min Rain = 0
KQU1 241316Z 20010KT 19/13 A2983 RMK A01 T01900127  RH  067%=      5-min Rain = 0
KQU1 241317Z 20010KT 19/13 A2983 RMK A01 T01910129  RH  067%=      5-min Rain = 0
KQU1 241318Z 20011KT 19/13 A2983 RMK A01 T01930126  RH  065%=      5-min Rain = 0
KQU1 241319Z 20012KT 19/13 A2983 RMK A01 T01940126  RH  065%=      5-min Rain = 0
KQU1 241320Z 19013KT 20/13 A2983 RMK A01 T01950125  RH  064%=      5-min Rain = 0
KQU1 241321Z 20014KT 20/12 A2983 RMK A01 T01950124  RH  064%=      5-min Rain = 0
KQU1 241322Z 20012KT 20/13 A2983 RMK A01 T01960125  RH  064%=      5-min Rain = 0
KQU1 241323Z 19012G17KT 20/13 A2983 RMK A01 T01970126  RH  064%=      5-min Rain = 0
KQU1 241324Z 20013KT 20/13 A2983 RMK A01 T01980126  RH  063%=      5-min Rain = 0
KQU1 241325Z 20013KT 20/13 A2983 RMK A01 T01990126  RH  063%=      5-min Rain = 0
KQU1 241326Z 19016KT 20/13 A2983 RMK A01 T01990125  RH  062%=      5-min Rain = 0
KQU1 241327Z 19013KT 20/13 A2983 RMK A01 T02000125  RH  062%=      5-min Rain = 0
KQU1 241328Z 19014KT 20/13 A2983 RMK A01 T02010126  RH  062%=      5-min Rain = 0
KQU1 241329Z 19013KT 20/13 A2983 RMK A01 T02020127  RH  062%=      5-min Rain = 0
KQU1 241330Z 19014KT 20/13 A2983 RMK A01 T02020125  RH  061%=      5-min Rain = 0
KQU1 241331Z 19012KT 20/13 A2983 RMK A01 T02030127  RH  062%=      5-min Rain = 0
KQU1 241332Z 19013KT 20/13 A2983 RMK A01 T02040126  RH  061%=      5-min Rain = 0
KQU1 241333Z 20013KT 21/13 A2983 RMK A01 T02050127  RH  060%=      5-min Rain = 0
KQU1 241334Z 19014KT 21/13 A2983 RMK A01 T02060125  RH  060%=      5-min Rain = 0
KQU1 241335Z 19014KT 21/13 A2983 RMK A01 T02070125  RH  060%=      5-min Rain = 0
KQU1 241336Z 19012KT 21/13 A2983 RMK A01 T02070126  RH  060%=      5-min Rain = 0
KQU1 241337Z 19012G17KT 21/13 A2983 RMK A01 T02080125  RH  059%=      5-min Rain = 0
KQU1 241338Z 20015KT 21/12 A2983 RMK A01 T02080124  RH  058%=      5-min Rain = 0
KQU1 241339Z 19012KT 21/13 A2983 RMK A01 T02090126  RH  059%=      5-min Rain = 0
KQU1 241340Z 19012KT 21/13 A2983 RMK A01 T02100125  RH  058%=      5-min Rain = 0
KQU1 241341Z 19012G18KT 21/13 A2983 RMK A01 T02110128  RH  059%=      5-min Rain = 0
KQU1 241342Z 20013G18KT 21/13 A2983 RMK A01 T02120126  RH  058%=      5-min Rain = 0
KQU1 241343Z 19014KT 21/13 A2983 RMK A01 T02130125  RH  057%=      5-min Rain = 0
KQU1 241344Z 19013KT 21/13 A2984 RMK A01 T02130127  RH  058%=      5-min Rain = 0
KQU1 241345Z 19016KT 21/13 A2984 RMK A01 T02140126  RH  057%=      5-min Rain = 0
KQU1 241346Z 19015KT 21/13 A2983 RMK A01 T02140126  RH  057%=      5-min Rain = 0
KQU1 241347Z 19016KT 21/13 A2983 RMK A01 T02140126  RH  057%=      5-min Rain = 0
KQU1 241348Z 19015KT 22/13 A2983 RMK A01 T02150126  RH  057%=      5-min Rain = 0
KQU1 241349Z 19014G19KT 22/13 A2984 RMK A01 T02160127  RH  057%=      5-min Rain = 0
KQU1 241350Z 18016KT 22/13 A2984 RMK A01 T02160126  RH  056%=      5-min Rain = 0
KQU1 241351Z 18017KT 22/13 A2984 RMK A01 T02160125  RH  056%=      5-min Rain = 0
KQU1 241352Z 19015KT 22/13 A2984 RMK A01 T02170126  RH  056%=      5-min Rain = 0
KQU1 241353Z 19015KT 22/13 A2984 RMK A01 T02170125  RH  056%=      5-min Rain = 0
KQU1 241354Z 19016KT 22/13 A2984 RMK A01 T02180126  RH  056%=      5-min Rain = 0
KQU1 241355Z 19014G19KT 22/13 A2984 RMK A01 T02190128  RH  056%=      5-min Rain = 0
KQU1 241356Z 19021KT 22/12 A2983 RMK A01 T02200124  RH  055%=      5-min Rain = 0
KQU1 241357Z 18017KT 22/13 A2983 RMK A01 T02200126  RH  055%=      5-min Rain = 0
KQU1 241358Z 18017KT 22/13 A2983 RMK A01 T02210126  RH  055%=      5-min Rain = 0
KQU1 241359Z 19016KT 22/13 A2983 RMK A01 T02210125  RH  055%=      5-min Rain = 0
KQU1 241400Z 19018KT 22/12 A2983 RMK A01 T02210124  RH  054%=      5-min Rain = 0
KQU1 241401Z 19016KT 22/13 A2983 RMK A01 T02220127  RH  055%=      5-min Rain = 0
KQU1 241402Z 18016KT 22/13 A2983 RMK A01 T02220127  RH  055%=      5-min Rain = 0
KQU1 241403Z 18018KT 22/13 A2983 RMK A01 T02230126  RH  054%=      5-min Rain = 0
KQU1 241404Z 18017KT 22/13 A2983 RMK A01 T02230126  RH  054%=      5-min Rain = 0
KQU1 241405Z 18016KT 22/13 A2983 RMK A01 T02230127  RH  054%=      5-min Rain = 0
KQU1 241406Z 19013G19KT 22/13 A2983 RMK A01 T02240129  RH  055%=      5-min Rain = 0
KQU1 241407Z 18015KT 23/13 A2983 RMK A01 T02260127  RH  054%=      5-min Rain = 0
KQU1 241408Z 18016KT 23/13 A2983 RMK A01 T02260129  RH  054%=      5-min Rain = 0
KQU1 241409Z 18015KT 23/13 A2983 RMK A01 T02260129  RH  054%=      5-min Rain = 0
KQU1 241410Z 19013G18KT 23/13 A2984 RMK A01 T02270130  RH  054%=      5-min Rain = 0
KQU1 241411Z 20017KT 23/13 A2984 RMK A01 T02280128  RH  053%=      5-min Rain = 0
KQU1 241412Z 18015KT 23/13 A2984 RMK A01 T02300132  RH  054%=      5-min Rain = 0
KQU1 241413Z 20016G22KT 23/13 A2984 RMK A01 T02300131  RH  053%=      5-min Rain = 0
KQU1 241414Z 20017KT 23/13 A2984 RMK A01 T02310129  RH  053%=      5-min Rain = 0
KQU1 241415Z 19016KT 23/13 A2984 RMK A01 T02310130  RH  053%=      5-min Rain = 0
KQU1 241416Z 19015KT 23/13 A2983 RMK A01 T02310130  RH  053%=      5-min Rain = 0
KQU1 241417Z 19019KT 23/13 A2983 RMK A01 T02310130  RH  053%=      5-min Rain = 0
KQU1 241418Z 18018G24KT 23/13 A2983 RMK A01 T02310132  RH  054%=      5-min Rain = 0
KQU1 241419Z 18019KT 23/13 A2983 RMK A01 T02310132  RH  053%=      5-min Rain = 0
KQU1 241420Z 19019G24KT 23/13 A2983 RMK A01 T02310132  RH  053%=      5-min Rain = 0
KQU1 241421Z 20016KT 23/13 A2983 RMK A01 T02320133  RH  054%=      5-min Rain = 0
KQU1 241422Z 19019KT 23/13 A2983 RMK A01 T02330131  RH  053%=      5-min Rain = 0
KQU1 241423Z 19016KT 23/13 A2983 RMK A01 T02330132  RH  053%=      5-min Rain = 0
KQU1 241424Z 18017KT 23/13 A2983 RMK A01 T02330133  RH  053%=      5-min Rain = 0
KQU1 241425Z 19019KT 23/13 A2983 RMK A01 T02330132  RH  053%=      5-min Rain = 0
KQU1 241426Z 19017KT 23/13 A2983 RMK A01 T02330131  RH  053%=      5-min Rain = 0
KQU1 241427Z 20016KT 23/13 A2983 RMK A01 T02340133  RH  053%=      5-min Rain = 0
KQU1 241428Z 20018KT 24/13 A2983 RMK A01 T02350134  RH  053%=      5-min Rain = 0
KQU1 241429Z 20020G25KT 24/14 A2983 RMK A01 T02350135  RH  053%=      5-min Rain = 0
KQU1 241430Z 20020G27KT 24/14 A2983 RMK A01 T02370136  RH  053%=      5-min Rain = 0
KQU1 241431Z 21020G25KT 24/14 A2983 RMK A01 T02370137  RH  053%=      5-min Rain = 0
KQU1 241432Z 21018KT 24/14 A2983 RMK A01 T02370136  RH  053%=      5-min Rain = 0
KQU1 241433Z 20017KT 24/14 A2983 RMK A01 T02380137  RH  053%=      5-min Rain = 0
KQU1 241434Z 20017KT 24/14 A2983 RMK A01 T02390136  RH  053%=      5-min Rain = 0
KQU1 241435Z 19018G23KT 24/14 A2983 RMK A01 T02390137  RH  053%=      5-min Rain = 0
KQU1 241436Z 19021KT 24/14 A2983 RMK A01 T02400138  RH  053%=      5-min Rain = 0
KQU1 241437Z 19019G24KT 24/14 A2983 RMK A01 T02400137  RH  053%=      5-min Rain = 0
KQU1 241438Z 20022KT 24/14 A2983 RMK A01 T02400136  RH  052%=      5-min Rain = 0
KQU1 241439Z 20023KT 24/14 A2983 RMK A01 T02390136  RH  053%=      5-min Rain = 0
KQU1 241440Z 20021G26KT 24/14 A2983 RMK A01 T02390137  RH  053%=      5-min Rain = 0
KQU1 241441Z 20019KT 24/14 A2983 RMK A01 T02400137  RH  053%=      5-min Rain = 0
KQU1 241442Z 20019KT 24/14 A2983 RMK A01 T02410137  RH  052%=      5-min Rain = 0
KQU1 241443Z 19020KT 24/14 A2983 RMK A01 T02410138  RH  052%=      5-min Rain = 0
KQU1 241444Z 19020KT 24/14 A2983 RMK A01 T02410137  RH  052%=      5-min Rain = 0
KQU1 241445Z 20019KT 24/14 A2983 RMK A01 T02410137  RH  052%=      5-min Rain = 0
KQU1 241446Z 20018KT 24/14 A2983 RMK A01 T02410138  RH  052%=      5-min Rain = 0
KQU1 241447Z 19018KT 24/14 A2983 RMK A01 T02420140  RH  053%=      5-min Rain = 0
KQU1 241448Z 19021KT 24/14 A2983 RMK A01 T02420138  RH  052%=      5-min Rain = 0
KQU1 241449Z 19020G25KT 24/14 A2983 RMK A01 T02420138  RH  052%=      5-min Rain = 0
KQU1 241450Z 19018G24KT 24/14 A2983 RMK A01 T02410139  RH  053%=      5-min Rain = 0
KQU1 241451Z 19022G27KT 24/14 A2983 RMK A01 T02420139  RH  052%=      5-min Rain = 0
KQU1 241452Z 19021KT 24/14 A2983 RMK A01 T02430139  RH  052%=      5-min Rain = 0
KQU1 241453Z 20021KT 24/14 A2983 RMK A01 T02440139  RH  052%=      5-min Rain = 0
KQU1 241454Z 20022G27KT 24/14 A2983 RMK A01 T02440139  RH  052%=      5-min Rain = 0
KQU1 241455Z 19024KT 24/14 A2982 RMK A01 T02430138  RH  052%=      5-min Rain = 0
KQU1 241456Z 20022KT 24/14 A2982 RMK A01 T02430139  RH  052%=      5-min Rain = 0
KQU1 241457Z 20023KT 24/14 A2982 RMK A01 T02440138  RH  052%=      5-min Rain = 0
KQU1 241458Z 19019G26KT 25/14 A2982 RMK A01 T02450140  RH  052%=      5-min Rain = 0
KQU1 241459Z 20024KT 25/14 A2982 RMK A01 T02450138  RH  051%=      5-min Rain = 0
KQU1 241500Z 20021KT 24/14 A2982 RMK A01 T02440139  RH  052%=      5-min Rain = 0
KQU1 241501Z 20020KT 25/14 A2982 RMK A01 T02450141  RH  052%=      5-min Rain = 0
KQU1 241502Z 20022KT 25/14 A2982 RMK A01 T02460139  RH  051%=      5-min Rain = 0
KQU1 241503Z 20021KT 25/14 A2982 RMK A01 T02460140  RH  052%=      5-min Rain = 0
KQU1 241504Z 20019G24KT 25/14 A2982 RMK A01 T02470143  RH  052%=      5-min Rain = 0
KQU1 241505Z 19023G28KT 25/14 A2982 RMK A01 T02480140  RH  051%=      5-min Rain = 0
KQU1 241506Z 19023KT 25/14 A2982 RMK A01 T02470140  RH  051%=      5-min Rain = 0
KQU1 241507Z 20022KT 25/14 A2983 RMK A01 T02460139  RH  051%=      5-min Rain = 0
KQU1 241508Z 20020G26KT 25/14 A2983 RMK A01 T02460141  RH  052%=      5-min Rain = 0
KQU1 241509Z 20019G24KT 25/14 A2983 RMK A01 T02470143  RH  052%=      5-min Rain = 0
KQU1 241510Z 19021KT 25/14 A2982 RMK A01 T02480142  RH  052%=      5-min Rain = 0
KQU1 241511Z 20020KT 25/14 A2982 RMK A01 T02490142  RH  051%=      5-min Rain = 0
KQU1 241512Z 19021KT 25/14 A2982 RMK A01 T02480141  RH  051%=      5-min Rain = 0
KQU1 241513Z 19022KT 25/14 A2982 RMK A01 T02480141  RH  052%=      5-min Rain = 0
KQU1 241514Z 20022KT 25/14 A2982 RMK A01 T02480142  RH  052%=      5-min Rain = 0
KQU1 241515Z 21021KT 25/14 A2982 RMK A01 T02480141  RH  051%=      5-min Rain = 0
KQU1 241516Z 21018KT 25/14 A2982 RMK A01 T02480144  RH  052%=      5-min Rain = 0
KQU1 241517Z 21019KT 25/14 A2982 RMK A01 T02500143  RH  052%=      5-min Rain = 0
KQU1 241518Z 20018KT 25/14 A2982 RMK A01 T02500144  RH  052%=      5-min Rain = 0
KQU1 241519Z 19020KT 25/14 A2982 RMK A01 T02510144  RH  051%=      5-min Rain = 0
KQU1 241520Z 19019KT 25/15 A2982 RMK A01 T02510145  RH  052%=      5-min Rain = 0
KQU1 241521Z 20022KT 25/14 A2982 RMK A01 T02510142  RH  051%=      5-min Rain = 0
KQU1 241522Z 21021G26KT 25/14 A2982 RMK A01 T02500143  RH  051%=      5-min Rain = 0
KQU1 241523Z 21020KT 25/14 A2982 RMK A01 T02510143  RH  051%=      5-min Rain = 0
KQU1 241524Z 20021KT 25/14 A2982 RMK A01 T02510144  RH  051%=      5-min Rain = 0
KQU1 241525Z 20020KT 25/14 A2982 RMK A01 T02510144  RH  051%=      5-min Rain = 0
KQU1 241526Z 21020KT 25/14 A2982 RMK A01 T02510144  RH  051%=      5-min Rain = 0
KQU1 241527Z 21021KT 25/14 A2982 RMK A01 T02520144  RH  051%=      5-min Rain = 0
KQU1 241528Z 21020KT 25/15 A2982 RMK A01 T02520145  RH  052%=      5-min Rain = 0
KQU1 241529Z 21017KT 25/15 A2982 RMK A01 T02530145  RH  051%=      5-min Rain = 0
KQU1 241530Z 21018KT 25/15 A2982 RMK A01 T02530145  RH  051%=      5-min Rain = 0
KQU1 241531Z 21019G24KT 25/15 A2982 RMK A01 T02530145  RH  051%=      5-min Rain = 0
KQU1 241532Z 20017KT 25/15 A2982 RMK A01 T02540147  RH  052%=      5-min Rain = 0
KQU1 241533Z 21019KT 26/15 A2982 RMK A01 T02550145  RH  051%=      5-min Rain = 0
KQU1 241534Z 20021KT 26/15 A2982 RMK A01 T02550145  RH  051%=      5-min Rain = 0
KQU1 241535Z 20019G25KT 25/15 A2982 RMK A01 T02540147  RH  051%=      5-min Rain = 0
KQU1 241536Z 19019KT 25/15 A2982 RMK A01 T02540148  RH  052%=      5-min Rain = 0
KQU1 241537Z 19018KT 26/15 A2982 RMK A01 T02550148  RH  052%=      5-min Rain = 0
KQU1 241538Z 20019KT 25/15 A2982 RMK A01 T02540145  RH  051%=      5-min Rain = 0
KQU1 241539Z 21019KT 25/15 A2982 RMK A01 T02540146  RH  051%=      5-min Rain = 0
KQU1 241540Z 21016KT 25/15 A2982 RMK A01 T02540147  RH  051%=      5-min Rain = 0
KQU1 241541Z 21017G22KT 26/15 A2982 RMK A01 T02550147  RH  051%=      5-min Rain = 0
KQU1 241542Z 20016G21KT 26/15 A2982 RMK A01 T02560151  RH  052%=      5-min Rain = 0
KQU1 241543Z 20018KT 26/15 A2982 RMK A01 T02590151  RH  051%=      5-min Rain = 0
KQU1 241544Z 20015KT 26/15 A2982 RMK A01 T02600150  RH  051%=      5-min Rain = 0
KQU1 241545Z 20018G23KT 26/15 A2982 RMK A01 T02610149  RH  050%=      5-min Rain = 0
KQU1 241546Z 20019KT 26/15 A2981 RMK A01 T02590147  RH  050%=      5-min Rain = 0
KQU1 241547Z 21017KT 26/15 A2982 RMK A01 T02590149  RH  051%=      5-min Rain = 0
KQU1 241548Z 21020KT 26/15 A2981 RMK A01 T02580146  RH  050%=      5-min Rain = 0
KQU1 241549Z 22016KT 26/15 A2981 RMK A01 T02570150  RH  052%=      5-min Rain = 0
KQU1 241550Z 19018G23KT 26/15 A2981 RMK A01 T02590152  RH  052%=      5-min Rain = 0
KQU1 241551Z 19020KT 26/15 A2981 RMK A01 T02590148  RH  051%=      5-min Rain = 0
KQU1 241552Z 20019G24KT 26/15 A2981 RMK A01 T02580150  RH  051%=      5-min Rain = 0
KQU1 241553Z 20022KT 26/15 A2981 RMK A01 T02590148  RH  050%=      5-min Rain = 0
KQU1 241554Z 20019KT 26/15 A2981 RMK A01 T02580148  RH  051%=      5-min Rain = 0
KQU1 241555Z 21019G24KT 26/15 A2981 RMK A01 T02590150  RH  051%=      5-min Rain = 0
KQU1 241556Z 20021KT 26/15 A2981 RMK A01 T02590147  RH  050%=      5-min Rain = 0
KQU1 241557Z 21020KT 26/15 A2981 RMK A01 T02590149  RH  051%=      5-min Rain = 0
KQU1 241558Z 20019KT 26/15 A2981 RMK A01 T02590148  RH  050%=      5-min Rain = 0
KQU1 241559Z 21018KT 26/15 A2981 RMK A01 T02590149  RH  050%=      5-min Rain = 0
KQU1 241600Z 21016KT 26/15 A2981 RMK A01 T02600150  RH  051%=      5-min Rain = 0
KQU1 241601Z 20015G20KT 26/16 A2981 RMK A01 T02620155  RH  052%=      5-min Rain = 0
KQU1 241602Z 21016KT 26/15 A2981 RMK A01 T02630151  RH  050%=      5-min Rain = 0
KQU1 241603Z 21015G20KT 26/15 A2981 RMK A01 T02630153  RH  051%=      5-min Rain = 0
KQU1 241604Z 19020G25KT 26/15 A2981 RMK A01 T02620151  RH  050%=      5-min Rain = 0
KQU1 241605Z 20019G24KT 26/15 A2981 RMK A01 T02610150  RH  051%=      5-min Rain = 0
KQU1 241606Z 19020KT 26/15 A2981 RMK A01 T02610151  RH  051%=      5-min Rain = 0
KQU1 241607Z 19021KT 26/15 A2981 RMK A01 T02610149  RH  050%=      5-min Rain = 0
KQU1 241608Z 20021KT 26/15 A2981 RMK A01 T02600150  RH  051%=      5-min Rain = 0
KQU1 241609Z 20019KT 26/15 A2981 RMK A01 T02590150  RH  051%=      5-min Rain = 0
KQU1 241610Z 19017KT 26/15 A2981 RMK A01 T02590153  RH  052%=      5-min Rain = 0
KQU1 241611Z 20016KT 26/16 A2981 RMK A01 T02600155  RH  052%=      5-min Rain = 0
KQU1 241612Z 20022KT 26/15 A2981 RMK A01 T02620152  RH  051%=      5-min Rain = 0
KQU1 241613Z 21020KT 26/15 A2981 RMK A01 T02620150  RH  050%=      5-min Rain = 0
KQU1 241614Z 21017KT 26/15 A2981 RMK A01 T02620153  RH  051%=      5-min Rain = 0
KQU1 241615Z 20018KT 26/15 A2981 RMK A01 T02620152  RH  051%=      5-min Rain = 0
KQU1 241616Z 20019KT 26/15 A2981 RMK A01 T02620152  RH  051%=      5-min Rain = 0
KQU1 241617Z 20018KT 26/15 A2981 RMK A01 T02620153  RH  051%=      5-min Rain = 0
KQU1 241618Z 20020KT 26/15 A2981 RMK A01 T02620151  RH  050%=      5-min Rain = 0
KQU1 241619Z 20019KT 26/15 A2981 RMK A01 T02610153  RH  051%=      5-min Rain = 0
KQU1 241620Z 20020KT 26/15 A2981 RMK A01 T02610152  RH  051%=      5-min Rain = 0
KQU1 241621Z 20016G21KT 26/16 A2981 RMK A01 T02610155  RH  052%=      5-min Rain = 0
KQU1 241622Z 20017KT 26/16 A2981 RMK A01 T02640155  RH  051%=      5-min Rain = 0
KQU1 241623Z 19020KT 26/15 A2981 RMK A01 T02640152  RH  050%=      5-min Rain = 0
KQU1 241624Z 20018KT 26/15 A2981 RMK A01 T02640153  RH  050%=      5-min Rain = 0
KQU1 241625Z 19018KT 27/16 A2982 RMK A01 T02650156  RH  051%=      5-min Rain = 0
KQU1 241626Z 19019KT 27/16 A2982 RMK A01 T02660155  RH  050%=      5-min Rain = 0
KQU1 241627Z 19020KT 27/15 A2982 RMK A01 T02650153  RH  050%=      5-min Rain = 0
KQU1 241628Z 19020KT 27/15 A2982 RMK A01 T02650154  RH  051%=      5-min Rain = 0
KQU1 241629Z 19019KT 26/16 A2982 RMK A01 T02640155  RH  051%=      5-min Rain = 0
KQU1 241630Z 19018KT 26/16 A2982 RMK A01 T02640156  RH  051%=      5-min Rain = 0
KQU1 241631Z 20019KT 27/15 A2982 RMK A01 T02650154  RH  050%=      5-min Rain = 0
KQU1 241632Z 20021KT 27/15 A2982 RMK A01 T02650152  RH  050%=      5-min Rain = 0
KQU1 241633Z 20020KT 27/15 A2982 RMK A01 T02650154  RH  050%=      5-min Rain = 0
KQU1 241634Z 20017KT 27/15 A2982 RMK A01 T02660153  RH  050%=      5-min Rain = 0
KQU1 241635Z 21017KT 27/16 A2982 RMK A01 T02680155  RH  050%=      5-min Rain = 0
KQU1 241636Z 21017G24KT 27/15 A2982 RMK A01 T02690154  RH  049%=      5-min Rain = 0
KQU1 241637Z 21020KT 27/15 A2982 RMK A01 T02690153  RH  049%=      5-min Rain = 0
KQU1 241638Z 21017KT 27/15 A2982 RMK A01 T02680152  RH  049%=      5-min Rain = 0
KQU1 241639Z 21018G23KT 27/15 A2982 RMK A01 T02670153  RH  050%=      5-min Rain = 0
KQU1 241640Z 20017G22KT 27/15 A2982 RMK A01 T02670154  RH  050%=      5-min Rain = 0
KQU1 241641Z 21020KT 27/15 A2982 RMK A01 T02670151  RH  049%=      5-min Rain = 0
KQU1 241642Z 21017KT 27/15 A2982 RMK A01 T02660151  RH  049%=      5-min Rain = 0
KQU1 241643Z 22014KT 27/15 A2982 RMK A01 T02660154  RH  050%=      5-min Rain = 0
KQU1 241644Z 22018G23KT 27/16 A2982 RMK A01 T02670156  RH  050%=      5-min Rain = 0
KQU1 241645Z 21016KT 27/16 A2982 RMK A01 T02700156  RH  050%=      5-min Rain = 0
KQU1 241646Z 21016KT 27/15 A2982 RMK A01 T02710154  RH  049%=      5-min Rain = 0
KQU1 241647Z 21016KT 27/15 A2982 RMK A01 T02710153  RH  049%=      5-min Rain = 0
KQU1 241648Z 21019KT 27/15 A2982 RMK A01 T02690153  RH  049%=      5-min Rain = 0
KQU1 241649Z 21018KT 27/15 A2982 RMK A01 T02680153  RH  049%=      5-min Rain = 0
KQU1 241650Z 20015KT 27/15 A2982 RMK A01 T02670153  RH  049%=      5-min Rain = 0
KQU1 241651Z 19015KT 27/16 A2982 RMK A01 T02670155  RH  050%=      5-min Rain = 0
KQU1 241652Z 20013G18KT 27/16 A2982 RMK A01 T02670156  RH  051%=      5-min Rain = 0
KQU1 241653Z 20017KT 27/15 A2982 RMK A01 T02680153  RH  049%=      5-min Rain = 0
KQU1 241654Z 20016KT 27/16 A2982 RMK A01 T02680156  RH  050%=      5-min Rain = 0
KQU1 241655Z 20016KT 27/16 A2982 RMK A01 T02680156  RH  050%=      5-min Rain = 0
KQU1 241656Z 21016KT 27/16 A2982 RMK A01 T02690155  RH  050%=      5-min Rain = 0
KQU1 241657Z 21013KT 27/16 A2982 RMK A01 T02700155  RH  049%=      5-min Rain = 0
KQU1 241658Z 21016KT 27/16 A2982 RMK A01 T02710157  RH  050%=      5-min Rain = 0
KQU1 241659Z 20016KT 27/16 A2982 RMK A01 T02730156  RH  049%=      5-min Rain = 0
KQU1 241700Z 20017KT 27/16 A2982 RMK A01 T02720155  RH  049%=      5-min Rain = 0
KQU1 241701Z 20017KT 27/15 A2983 RMK A01 T02710153  RH  048%=      5-min Rain = 0
KQU1 241702Z 20018KT 27/15 A2983 RMK A01 T02690154  RH  049%=      5-min Rain = 0
KQU1 241703Z 20014KT 27/16 A2983 RMK A01 T02700155  RH  049%=      5-min Rain = 0
KQU1 241704Z 20014KT 27/15 A2983 RMK A01 T02700154  RH  049%=      5-min Rain = 0
KQU1 241705Z 19014KT 27/15 A2983 RMK A01 T02700154  RH  049%=      5-min Rain = 0
KQU1 241706Z 20011KT 27/15 A2983 RMK A01 T02700154  RH  049%=      5-min Rain = 0
KQU1 241707Z 19011KT 27/16 A2983 RMK A01 T02700158  RH  050%=      5-min Rain = 0
KQU1 241708Z 17012KT 27/16 A2983 RMK A01 T02720160  RH  050%=      5-min Rain = 0
KQU1 241709Z 18012KT 27/16 A2983 RMK A01 T02730160  RH  050%=      5-min Rain = 0
KQU1 241710Z 19013KT 27/16 A2983 RMK A01 T02740160  RH  050%=      5-min Rain = 0
KQU1 241711Z 18014KT 27/16 A2983 RMK A01 T02740161  RH  050%=      5-min Rain = 0
KQU1 241712Z 19016KT 27/16 A2983 RMK A01 T02740159  RH  049%=      5-min Rain = 0
KQU1 241713Z 18015G23KT 27/16 A2983 RMK A01 T02740160  RH  050%=      5-min Rain = 0
KQU1 241714Z 17013KT 28/17 A2983 RMK A01 T02750166  RH  051%=      5-min Rain = 0
KQU1 241715Z 18014KT 28/16 A2983 RMK A01 T02770159  RH  049%=      5-min Rain = 0
KQU1 241716Z 19011KT 28/16 A2983 RMK A01 T02760160  RH  049%=      5-min Rain = 0
KQU1 241717Z 20012KT 28/15 A2983 RMK A01 T02760154  RH  047%=      5-min Rain = 0
KQU1 241718Z 20010KT 27/16 A2983 RMK A01 T02730156  RH  049%=      5-min Rain = 0
KQU1 241719Z 19011G17KT 27/16 A2983 RMK A01 T02730157  RH  049%=      5-min Rain = 0
KQU1 241720Z 22013KT 27/16 A2983 RMK A01 T02740157  RH  049%=      5-min Rain = 0
KQU1 241721Z 20013KT 28/16 A2983 RMK A01 T02750159  RH  049%=      5-min Rain = 0
KQU1 241722Z 20016KT 28/16 A2983 RMK A01 T02760155  RH  047%=      5-min Rain = 0
KQU1 241723Z 21011KT 27/15 A2983 RMK A01 T02740154  RH  048%=      5-min Rain = 0
KQU1 241724Z 19010KT 27/16 A2983 RMK A01 T02740158  RH  049%=      5-min Rain = 0
KQU1 241725Z 19014KT 28/16 A2983 RMK A01 T02760155  RH  048%=      5-min Rain = 0
KQU1 241726Z 20014G19KT 28/15 A2983 RMK A01 T02750154  RH  047%=      5-min Rain = 0
KQU1 241727Z 19016KT 27/16 A2983 RMK A01 T02740156  RH  049%=      5-min Rain = 0
KQU1 241728Z 19013KT 27/16 A2983 RMK A01 T02730156  RH  049%=      5-min Rain = 0
KQU1 241729Z 20011KT 27/16 A2983 RMK A01 T02720156  RH  049%=      5-min Rain = 0
KQU1 241730Z 20008KT 27/15 A2983 RMK A01 T02720154  RH  049%=      5-min Rain = 0
KQU1 241731Z 21009KT 27/16 A2983 RMK A01 T02710155  RH  049%=      5-min Rain = 0
KQU1 241732Z 22015KT 27/15 A2983 RMK A01 T02720154  RH  048%=      5-min Rain = 0
KQU1 241733Z 22015KT 27/15 A2983 RMK A01 T02730153  RH  048%=      5-min Rain = 0
KQU1 241734Z 23012KT 27/16 A2983 RMK A01 T02740155  RH  048%=      5-min Rain = 0
KQU1 241735Z 23010KT 27/16 A2983 RMK A01 T02740156  RH  049%=      5-min Rain = 0
KQU1 241736Z 20010KT 28/16 A2983 RMK A01 T02760158  RH  048%=      5-min Rain = 0
KQU1 241737Z 20012KT 28/15 A2983 RMK A01 T02770149  RH  045%=      5-min Rain = 0
KQU1 241738Z 22010KT 28/15 A2983 RMK A01 T02750150  RH  046%=      5-min Rain = 0
KQU1 241739Z 21009KT 28/15 A2983 RMK A01 T02750152  RH  047%=      5-min Rain = 0
KQU1 241740Z 19007G13KT 28/16 A2983 RMK A01 T02750155  RH  048%=      5-min Rain = 0
KQU1 241741Z 22013KT 28/15 A2983 RMK A01 T02760153  RH  047%=      5-min Rain = 0
KQU1 241742Z 22013KT 28/15 A2983 RMK A01 T02760151  RH  046%=      5-min Rain = 0
KQU1 241743Z 22009KT 28/15 A2983 RMK A01 T02750151  RH  047%=      5-min Rain = 0
KQU1 241744Z 20008KT 28/16 A2983 RMK A01 T02770158  RH  048%=      5-min Rain = 0
KQU1 241745Z 20008KT 28/16 A2982 RMK A01 T02800157  RH  047%=      5-min Rain = 0
KQU1 241746Z 19010KT 28/16 A2982 RMK A01 T02820157  RH  047%=      5-min Rain = 0
KQU1 241747Z 20010KT 28/16 A2982 RMK A01 T02810158  RH  047%=      5-min Rain = 0
KQU1 241748Z 22008KT 28/16 A2982 RMK A01 T02810155  RH  046%=      5-min Rain = 0
KQU1 241749Z 21010G15KT 28/16 A2982 RMK A01 T02800158  RH  047%=      5-min Rain = 0
KQU1 241750Z 22011KT 28/16 A2982 RMK A01 T02810160  RH  048%=      5-min Rain = 0
KQU1 241751Z 20012KT 28/16 A2982 RMK A01 T02830159  RH  047%=      5-min Rain = 0
KQU1 241752Z 20011KT 28/16 A2982 RMK A01 T02830159  RH  047%=      5-min Rain = 0
KQU1 241753Z 19010KT 28/16 A2982 RMK A01 T02820161  RH  048%=      5-min Rain = 0
KQU1 241754Z 21009KT 28/16 A2982 RMK A01 T02820159  RH  047%=      5-min Rain = 0
KQU1 241755Z 20010KT 28/16 A2982 RMK A01 T02820159  RH  047%=      5-min Rain = 0
KQU1 241756Z 19012KT 28/16 A2982 RMK A01 T02820158  RH  047%=      5-min Rain = 0
KQU1 241757Z 17011KT 28/16 A2982 RMK A01 T02810159  RH  047%=      5-min Rain = 0
KQU1 241758Z 16009KT 28/16 A2982 RMK A01 T02790159  RH  048%=      5-min Rain = 0
KQU1 241759Z 20015KT 28/16 A2982 RMK A01 T02790157  RH  047%=      5-min Rain = 0
KQU1 241800Z 21011KT 28/16 A2982 RMK A01 T02810158  RH  047%=      5-min Rain = 0
KQU1 241801Z 21012KT 28/16 A2982 RMK A01 T02830156  RH  046%=      5-min Rain = 0
KQU1 241802Z 23012KT 28/16 A2982 RMK A01 T02840157  RH  046%=      5-min Rain = 0
KQU1 241803Z 22010KT 28/15 A2982 RMK A01 T02820153  RH  045%=      5-min Rain = 0
KQU1 241804Z 20011KT 28/16 A2982 RMK A01 T02810157  RH  047%=      5-min Rain = 0
KQU1 241805Z 19013KT 28/16 A2982 RMK A01 T02820155  RH  046%=      5-min Rain = 0
KQU1 241806Z 19012KT 28/15 A2982 RMK A01 T02830154  RH  045%=      5-min Rain = 0
KQU1 241807Z 21012KT 29/15 A2982 RMK A01 T02850153  RH  045%=      5-min Rain = 0
KQU1 241808Z 21011KT 29/15 A2982 RMK A01 T02860151  RH  044%=      5-min Rain = 0
KQU1 241809Z 22010KT 29/15 A2982 RMK A01 T02860154  RH  045%=      5-min Rain = 0
KQU1 241810Z 21010KT 29/15 A2981 RMK A01 T02860153  RH  044%=      5-min Rain = 0
KQU1 241811Z 20008KT 29/16 A2981 RMK A01 T02850156  RH  046%=      5-min Rain = 0
KQU1 241812Z 19013KT 29/16 A2981 RMK A01 T02850158  RH  046%=      5-min Rain = 0
KQU1 241813Z 17013KT 28/16 A2981 RMK A01 T02840162  RH  047%=      5-min Rain = 0
KQU1 241814Z 19011KT 29/16 A2981 RMK A01 T02850158  RH  046%=      5-min Rain = 0
KQU1 241815Z 18009KT 28/16 A2981 RMK A01 T02840158  RH  046%=      5-min Rain = 0
KQU1 241816Z 20011KT 28/16 A2981 RMK A01 T02830156  RH  046%=      5-min Rain = 0
KQU1 241817Z 21013KT 28/15 A2981 RMK A01 T02840151  RH  044%=      5-min Rain = 0
KQU1 241818Z 21012KT 29/15 A2981 RMK A01 T02850150  RH  044%=      5-min Rain = 0
KQU1 241819Z 23012KT 29/15 A2981 RMK A01 T02850154  RH  045%=      5-min Rain = 0
KQU1 241820Z 23010KT 29/15 A2981 RMK A01 T02860153  RH  045%=      5-min Rain = 0
KQU1 241821Z 22009KT 29/16 A2981 RMK A01 T02860157  RH  046%=      5-min Rain = 0
KQU1 241822Z 22012KT 29/16 A2981 RMK A01 T02880156  RH  045%=      5-min Rain = 0
KQU1 241823Z 21014KT 29/15 A2981 RMK A01 T02880153  RH  044%=      5-min Rain = 0
KQU1 241824Z 22011KT 29/15 A2981 RMK A01 T02860154  RH  045%=      5-min Rain = 0
KQU1 241825Z 21010KT 29/15 A2981 RMK A01 T02860153  RH  045%=      5-min Rain = 0
KQU1 241826Z 23010KT 29/16 A2981 RMK A01 T02860157  RH  045%=      5-min Rain = 0
KQU1 241827Z 22013KT 29/15 A2981 RMK A01 T02880153  RH  044%=      5-min Rain = 0
KQU1 241828Z 22012KT 29/15 A2981 RMK A01 T02880150  RH  043%=      5-min Rain = 0
KQU1 241829Z 22011KT 29/15 A2981 RMK A01 T02870148  RH  043%=      5-min Rain = 0
KQU1 241830Z 22007KT 29/15 A2981 RMK A01 T02850149  RH  043%=      5-min Rain = 0
KQU1 241831Z 22008KT 28/15 A2981 RMK A01 T02840154  RH  045%=      5-min Rain = 0
KQU1 241832Z 19010KT 29/16 A2981 RMK A01 T02850155  RH  045%=      5-min Rain = 0
KQU1 241833Z 19012KT 29/16 A2981 RMK A01 T02860158  RH  046%=      5-min Rain = 0
KQU1 241834Z 20011KT 29/16 A2981 RMK A01 T02870159  RH  046%=      5-min Rain = 0
KQU1 241835Z 19014KT 29/15 A2981 RMK A01 T02880152  RH  044%=      5-min Rain = 0
KQU1 241836Z 19010KT 29/15 A2981 RMK A01 T02870152  RH  044%=      5-min Rain = 0
KQU1 241837Z 21011KT 29/15 A2981 RMK A01 T02880154  RH  044%=      5-min Rain = 0
KQU1 241838Z 22012KT 29/15 A2981 RMK A01 T02890151  RH  043%=      5-min Rain = 0
KQU1 241839Z 21010KT 29/16 A2981 RMK A01 T02910155  RH  044%=      5-min Rain = 0
KQU1 241840Z 21015KT 29/15 A2981 RMK A01 T02910152  RH  043%=      5-min Rain = 0
KQU1 241841Z 20011KT 29/15 A298 RMK A01 T02890151  RH  043%=      5-min Rain = 0
KQU1 241842Z 21008KT 29/15 A298 RMK A01 T02870153  RH  044%=      5-min Rain = 0
KQU1 241843Z 21008KT 29/15 A298 RMK A01 T02870153  RH  044%=      5-min Rain = 0
KQU1 241844Z 19007KT 29/16 A298 RMK A01 T02860155  RH  045%=      5-min Rain = 0
KQU1 241845Z 19007KT 29/16 A298 RMK A01 T02880160  RH  046%=      5-min Rain = 0
KQU1 241846Z 20011KT 29/16 A298 RMK A01 T02900156  RH  044%=      5-min Rain = 0
KQU1 241847Z 20012KT 29/16 A298 RMK A01 T02920158  RH  044%=      5-min Rain = 0
KQU1 241848Z 20012KT 30/16 A298 RMK A01 T02950159  RH  044%=      5-min Rain = 0
KQU1 241849Z 20009KT 30/16 A298 RMK A01 T02970157  RH  043%=      5-min Rain = 0
KQU1 241850Z 17009KT 30/16 A298 RMK A01 T02970159  RH  043%=      5-min Rain = 0
KQU1 241851Z 17013KT 30/16 A298 RMK A01 T02960160  RH  044%=      5-min Rain = 0
KQU1 241852Z 17011KT 29/16 A298 RMK A01 T02940155  RH  043%=      5-min Rain = 0
KQU1 241853Z 19012KT 29/16 A298 RMK A01 T02930157  RH  044%=      5-min Rain = 0
KQU1 241854Z 19014KT 29/15 A298 RMK A01 T02930154  RH  043%=      5-min Rain = 0
KQU1 241855Z 21012KT 29/16 A298 RMK A01 T02940156  RH  043%=      5-min Rain = 0
KQU1 241856Z 22009KT 29/15 A298 RMK A01 T02940153  RH  042%=      5-min Rain = 0
KQU1 241857Z 22010KT 30/16 A298 RMK A01 T02950156  RH  043%=      5-min Rain = 0
KQU1 241858Z 21015KT 30/15 A298 RMK A01 T02960153  RH  042%=      5-min Rain = 0
KQU1 241859Z 19014KT 30/15 A298 RMK A01 T02960150  RH  041%=      5-min Rain = 0
KQU1 241900Z 18013KT 30/16 A298 RMK A01 T02960155  RH  042%=      5-min Rain = 0
KQU1 241901Z 17013KT 30/16 A298 RMK A01 T02950155  RH  043%=      5-min Rain = 0
KQU1 241902Z 18012KT 29/15 A298 RMK A01 T02930154  RH  043%=      5-min Rain = 0
KQU1 241903Z 17012KT 29/16 A2979 RMK A01 T02920156  RH  044%=      5-min Rain = 0
KQU1 241904Z 18012KT 29/16 A2979 RMK A01 T02930156  RH  043%=      5-min Rain = 0
KQU1 241905Z 17010KT 29/15 A2979 RMK A01 T02940152  RH  042%=      5-min Rain = 0
KQU1 241906Z 17006KT 29/16 A2979 RMK A01 T02940161  RH  045%=      5-min Rain = 0
KQU1 241907Z 20010KT 30/15 A2979 RMK A01 T02970153  RH  042%=      5-min Rain = 0
KQU1 241908Z 18014KT 30/15 A2979 RMK A01 T02980148  RH  040%=      5-min Rain = 0
KQU1 241909Z 21013KT 30/14 A2979 RMK A01 T02970142  RH  039%=      5-min Rain = 0
KQU1 241910Z 20012KT 30/15 A2979 RMK A01 T02960146  RH  040%=      5-min Rain = 0
KQU1 241911Z 19009KT 30/15 A2979 RMK A01 T02970150  RH  041%=      5-min Rain = 0
KQU1 241912Z 19008KT 30/15 A2979 RMK A01 T02970151  RH  041%=      5-min Rain = 0
KQU1 241913Z 19012KT 30/15 A2979 RMK A01 T02970154  RH  042%=      5-min Rain = 0
KQU1 241914Z 18014KT 30/16 A2979 RMK A01 T02970157  RH  043%=      5-min Rain = 0
KQU1 241915Z 19012KT 30/16 A2979 RMK A01 T02960158  RH  043%=      5-min Rain = 0
KQU1 241916Z 20009KT 30/16 A2979 RMK A01 T02960157  RH  043%=      5-min Rain = 0
KQU1 241917Z 20009KT 30/15 A2979 RMK A01 T02970153  RH  042%=      5-min Rain = 0
KQU1 241918Z 20008KT 30/16 A2979 RMK A01 T02980155  RH  042%=      5-min Rain = 0
KQU1 241919Z 18009KT 30/16 A2979 RMK A01 T03000158  RH  042%=      5-min Rain = 0
KQU1 241920Z 18013KT 30/16 A2979 RMK A01 T03000157  RH  042%=      5-min Rain = 0
KQU1 241921Z 20013KT 30/16 A2978 RMK A01 T02990156  RH  042%=      5-min Rain = 0
KQU1 241922Z 19012KT 30/15 A2978 RMK A01 T02980153  RH  041%=      5-min Rain = 0
KQU1 241923Z 18017KT 30/16 A2978 RMK A01 T02980158  RH  043%=      5-min Rain = 0
KQU1 241924Z 17012KT 30/16 A2978 RMK A01 T02970155  RH  042%=      5-min Rain = 0
KQU1 241925Z 18012KT 30/16 A2978 RMK A01 T02960162  RH  045%=      5-min Rain = 0
KQU1 241926Z 18013KT 30/16 A2978 RMK A01 T02970161  RH  044%=      5-min Rain = 0
KQU1 241927Z 17011KT 30/16 A2978 RMK A01 T02960159  RH  043%=      5-min Rain = 0
KQU1 241928Z 18013KT 29/16 A2978 RMK A01 T02920158  RH  044%=      5-min Rain = 0
KQU1 241929Z 18011KT 29/16 A2978 RMK A01 T02930161  RH  045%=      5-min Rain = 0
KQU1 241930Z 17008KT 30/17 A2978 RMK A01 T02950165  RH  046%=      5-min Rain = 0
KQU1 241931Z 17008KT 30/16 A2978 RMK A01 T02970164  RH  045%=      5-min Rain = 0
KQU1 241932Z 17012KT 30/16 A2978 RMK A01 T02980162  RH  044%=      5-min Rain = 0
KQU1 241933Z 18014KT 30/16 A2978 RMK A01 T02990158  RH  043%=      5-min Rain = 0
KQU1 241934Z 17012KT 30/16 A2978 RMK A01 T03000161  RH  043%=      5-min Rain = 0
KQU1 241935Z 17011KT 30/16 A2978 RMK A01 T03020160  RH  042%=      5-min Rain = 0
KQU1 241936Z 18011KT 30/16 A2978 RMK A01 T03020163  RH  043%=      5-min Rain = 0
KQU1 241937Z 19009KT 30/17 A2978 RMK A01 T03040165  RH  043%=      5-min Rain = 0
KQU1 241938Z 19010KT 30/16 A2978 RMK A01 T03040161  RH  042%=      5-min Rain = 0
KQU1 241939Z 16007KT 30/17 A2978 RMK A01 T03040165  RH  043%=      5-min Rain = 0
KQU1 241940Z 19011G16KT 30/16 A2978 RMK A01 T03040161  RH  042%=      5-min Rain = 0
KQU1 241941Z 17013KT 30/16 A2977 RMK A01 T03010157  RH  042%=      5-min Rain = 0
KQU1 241942Z 17011KT 30/16 A2977 RMK A01 T03000157  RH  042%=      5-min Rain = 0
KQU1 241943Z 17012KT 30/17 A2977 RMK A01 T03000167  RH  045%=      5-min Rain = 0
KQU1 241944Z 17014KT 30/16 A2977 RMK A01 T03010162  RH  043%=      5-min Rain = 0
KQU1 241945Z 17013KT 30/16 A2977 RMK A01 T03000160  RH  043%=      5-min Rain = 0
KQU1 241946Z 17012KT 30/17 A2977 RMK A01 T03000169  RH  045%=      5-min Rain = 0
KQU1 241947Z 17012KT 30/17 A2977 RMK A01 T03020170  RH  045%=      5-min Rain = 0
KQU1 241948Z 18011KT 30/16 A2977 RMK A01 T03030164  RH  043%=      5-min Rain = 0
KQU1 241949Z 19011KT 30/16 A2977 RMK A01 T03020159  RH  042%=      5-min Rain = 0
KQU1 241950Z 17010KT 30/17 A2977 RMK A01 T03020167  RH  044%=      5-min Rain = 0
KQU1 241951Z 19012G19KT 30/17 A2977 RMK A01 T03040165  RH  043%=      5-min Rain = 0
KQU1 241952Z 19016KT 30/16 A2977 RMK A01 T03040157  RH  041%=      5-min Rain = 0
KQU1 241953Z 16013KT 30/16 A2977 RMK A01 T03030158  RH  042%=      5-min Rain = 0
KQU1 241954Z 18013KT 30/16 A2977 RMK A01 T03020160  RH  042%=      5-min Rain = 0
KQU1 241955Z 16012KT 30/16 A2977 RMK A01 T03020157  RH  042%=      5-min Rain = 0
KQU1 241956Z 16011KT 30/15 A2977 RMK A01 T03020153  RH  041%=      5-min Rain = 0
KQU1 241957Z 16008KT 30/16 A2977 RMK A01 T03010157  RH  042%=      5-min Rain = 0
KQU1 241958Z 16010KT 30/16 A2977 RMK A01 T03020158  RH  042%=      5-min Rain = 0
KQU1 241959Z 16014KT 30/16 A2977 RMK A01 T03020155  RH  041%=      5-min Rain = 0
KQU1 242000Z 19015G20KT 30/16 A2977 RMK A01 T03030156  RH  041%=      5-min Rain = 0
KQU1 242001Z 21013KT 31/15 A2977 RMK A01 T03050152  RH  040%=      5-min Rain = 0
KQU1 242002Z 19014KT 31/15 A2977 RMK A01 T03060149  RH  039%=      5-min Rain = 0
KQU1 242003Z 19011KT 31/15 A2977 RMK A01 T03070149  RH  038%=      5-min Rain = 0
KQU1 242004Z 20011KT 31/15 A2977 RMK A01 T03060148  RH  038%=      5-min Rain = 0
KQU1 242005Z 19008KT 30/15 A2977 RMK A01 T03040149  RH  039%=      5-min Rain = 0
KQU1 242006Z 18011KT 30/16 A2976 RMK A01 T03030155  RH  041%=      5-min Rain = 0
KQU1 242007Z 18011KT 30/16 A2976 RMK A01 T03010157  RH  042%=      5-min Rain = 0
KQU1 242008Z 16013KT 30/16 A2976 RMK A01 T03010161  RH  043%=      5-min Rain = 0
KQU1 242009Z 15011KT 30/16 A2976 RMK A01 T03020162  RH  043%=      5-min Rain = 0
KQU1 242010Z 15009KT 30/16 A2976 RMK A01 T03040158  RH  041%=      5-min Rain = 0
KQU1 242011Z 16014KT 31/16 A2976 RMK A01 T03050161  RH  042%=      5-min Rain = 0
KQU1 242012Z 16013KT 31/15 A2976 RMK A01 T03050153  RH  040%=      5-min Rain = 0
KQU1 242013Z 16014KT 31/15 A2976 RMK A01 T03050152  RH  040%=      5-min Rain = 0
KQU1 242014Z 16010KT 30/15 A2976 RMK A01 T03040153  RH  040%=      5-min Rain = 0
KQU1 242015Z 17008KT 30/15 A2976 RMK A01 T03040154  RH  040%=      5-min Rain = 0
KQU1 242016Z 19010KT 31/16 A2976 RMK A01 T03050157  RH  041%=      5-min Rain = 0
KQU1 242017Z 17009KT 31/16 A2976 RMK A01 T03060157  RH  040%=      5-min Rain = 0
KQU1 242018Z 16011KT 31/16 A2976 RMK A01 T03070157  RH  041%=      5-min Rain = 0
KQU1 242019Z 16012G18KT 31/16 A2976 RMK A01 T03070157  RH  040%=      5-min Rain = 0
KQU1 242020Z 16014KT 31/15 A2976 RMK A01 T03070154  RH  040%=      5-min Rain = 0
KQU1 242021Z 16013KT 31/16 A2976 RMK A01 T03060155  RH  040%=      5-min Rain = 0
KQU1 242022Z 17012KT 31/16 A2976 RMK A01 T03060158  RH  041%=      5-min Rain = 0
KQU1 242023Z 19014KT 31/15 A2976 RMK A01 T03070153  RH  039%=      5-min Rain = 0
KQU1 242024Z 20012KT 31/15 A2975 RMK A01 T03060149  RH  038%=      5-min Rain = 0
KQU1 242025Z 18010KT 31/15 A2975 RMK A01 T03050153  RH  040%=      5-min Rain = 0
KQU1 242026Z 16010KT 31/15 A2975 RMK A01 T03060154  RH  040%=      5-min Rain = 0
KQU1 242027Z 16012G17KT 31/16 A2975 RMK A01 T03070158  RH  041%=      5-min Rain = 0
KQU1 242028Z 17014KT 31/15 A2975 RMK A01 T03070154  RH  040%=      5-min Rain = 0
KQU1 242029Z 17009KT 31/16 A2975 RMK A01 T03080155  RH  039%=      5-min Rain = 0
KQU1 242030Z 16009KT 31/16 A2975 RMK A01 T03080155  RH  039%=      5-min Rain = 0
KQU1 242031Z 16012KT 31/16 A2975 RMK A01 T03080155  RH  039%=      5-min Rain = 0
KQU1 242032Z 18014KT 31/16 A2975 RMK A01 T03100156  RH  040%=      5-min Rain = 0
KQU1 242033Z 17010KT 31/16 A2975 RMK A01 T03100158  RH  040%=      5-min Rain = 0
KQU1 242034Z 16010KT 31/15 A2975 RMK A01 T03100153  RH  039%=      5-min Rain = 0
KQU1 242035Z 15013KT 31/15 A2975 RMK A01 T03090149  RH  038%=      5-min Rain = 0
KQU1 242036Z 16011KT 31/15 A2975 RMK A01 T03080150  RH  038%=      5-min Rain = 0
KQU1 242037Z 17012KT 31/16 A2975 RMK A01 T03090155  RH  039%=      5-min Rain = 0
KQU1 242038Z 16014KT 31/15 A2975 RMK A01 T03090149  RH  038%=      5-min Rain = 0
KQU1 242039Z 15013KT 31/15 A2975 RMK A01 T03090152  RH  039%=      5-min Rain = 0
KQU1 242040Z 18010KT 31/15 A2975 RMK A01 T03080151  RH  038%=      5-min Rain = 0
KQU1 242041Z 18011KT 31/16 A2975 RMK A01 T03090155  RH  039%=      5-min Rain = 0
KQU1 242042Z 19014KT 31/15 A2975 RMK A01 T03090145  RH  037%=      5-min Rain = 0
KQU1 242043Z 18011KT 31/15 A2975 RMK A01 T03090150  RH  038%=      5-min Rain = 0
KQU1 242044Z 18010KT 31/15 A2975 RMK A01 T03090148  RH  038%=      5-min Rain = 0
KQU1 242045Z 18015KT 31/14 A2974 RMK A01 T03090143  RH  036%=      5-min Rain = 0
KQU1 242046Z 17014KT 31/14 A2974 RMK A01 T03100143  RH  036%=      5-min Rain = 0
KQU1 242047Z 17012KT 31/15 A2974 RMK A01 T03090146  RH  037%=      5-min Rain = 0
KQU1 242048Z 18013KT 31/15 A2974 RMK A01 T03090147  RH  037%=      5-min Rain = 0
KQU1 242049Z 16012G18KT 31/14 A2974 RMK A01 T03090142  RH  036%=      5-min Rain = 0
KQU1 242050Z 16013KT 31/14 A2974 RMK A01 T03090138  RH  035%=      5-min Rain = 0
KQU1 242051Z 17013KT 31/14 A2974 RMK A01 T03090139  RH  035%=      5-min Rain = 0
KQU1 242052Z 16013KT 31/14 A2974 RMK A01 T03100143  RH  036%=      5-min Rain = 0
KQU1 242053Z 16011KT 31/14 A2974 RMK A01 T03100141  RH  036%=      5-min Rain = 0
KQU1 242054Z 15011KT 31/14 A2974 RMK A01 T03100143  RH  036%=      5-min Rain = 0
KQU1 242055Z 17013KT 31/14 A2974 RMK A01 T03100142  RH  036%=      5-min Rain = 0
KQU1 242056Z 16010KT 31/14 A2974 RMK A01 T03110143  RH  036%=      5-min Rain = 0
KQU1 242057Z 18012KT 31/15 A2974 RMK A01 T03120150  RH  037%=      5-min Rain = 0
KQU1 242058Z 18012KT 31/14 A2974 RMK A01 T03130139  RH  035%=      5-min Rain = 0
KQU1 242059Z 18011KT 31/14 A2974 RMK A01 T03130142  RH  035%=      5-min Rain = 0
KQU1 242100Z 18009KT 31/14 A2974 RMK A01 T03120144  RH  036%=      5-min Rain = 0
KQU1 242101Z 18008KT 31/14 A2974 RMK A01 T03120141  RH  035%=      5-min Rain = 0
KQU1 242102Z 18008KT 31/14 A2974 RMK A01 T03120143  RH  036%=      5-min Rain = 0
KQU1 242103Z 17011KT 31/14 A2974 RMK A01 T03120142  RH  036%=      5-min Rain = 0
KQU1 242104Z 17009KT 31/14 A2973 RMK A01 T03120143  RH  036%=      5-min Rain = 0
KQU1 242105Z 18008KT 31/14 A2973 RMK A01 T03140144  RH  036%=      5-min Rain = 0
KQU1 242106Z 17006KT 32/15 A2973 RMK A01 T03150147  RH  036%=      5-min Rain = 0
KQU1 242107Z 17007G12KT 32/15 A2973 RMK A01 T03170148  RH  036%=      5-min Rain = 0
KQU1 242108Z 20013KT 32/14 A2973 RMK A01 T03180140  RH  034%=      5-min Rain = 0
KQU1 242109Z 19009KT 32/14 A2973 RMK A01 T03180137  RH  033%=      5-min Rain = 0
KQU1 242110Z 20012KT 32/14 A2973 RMK A01 T03170137  RH  033%=      5-min Rain = 0
KQU1 242111Z 19013KT 32/13 A2973 RMK A01 T03160126  RH  031%=      5-min Rain = 0
KQU1 242112Z 18009KT 31/13 A2973 RMK A01 T03140132  RH  033%=      5-min Rain = 0
KQU1 242113Z 18010KT 31/13 A2973 RMK A01 T03140131  RH  033%=      5-min Rain = 0
KQU1 242114Z 18010KT 31/13 A2973 RMK A01 T03130130  RH  033%=      5-min Rain = 0
KQU1 242115Z 17009KT 31/13 A2973 RMK A01 T03120131  RH  033%=      5-min Rain = 0
KQU1 242116Z 18008KT 31/13 A2973 RMK A01 T03120134  RH  034%=      5-min Rain = 0
KQU1 242117Z 20011KT 31/13 A2973 RMK A01 T03120131  RH  033%=      5-min Rain = 0
KQU1 242118Z 19012KT 31/13 A2973 RMK A01 T03120131  RH  033%=      5-min Rain = 0
KQU1 242119Z 19010KT 31/14 A2973 RMK A01 T03130135  RH  034%=      5-min Rain = 0
KQU1 242120Z 18008KT 31/14 A2973 RMK A01 T03120135  RH  034%=      5-min Rain = 0
KQU1 242121Z 21007KT 31/14 A2972 RMK A01 T03110135  RH  034%=      5-min Rain = 0
KQU1 242122Z 19008G13KT 31/14 A2972 RMK A01 T03110139  RH  035%=      5-min Rain = 0
KQU1 242123Z 18005KT 31/15 A2972 RMK A01 T03130151  RH  037%=      5-min Rain = 0
KQU1 242124Z 20006KT 32/14 A2972 RMK A01 T03170144  RH  035%=      5-min Rain = 0
KQU1 242125Z 19006KT 32/14 A2972 RMK A01 T03190141  RH  034%=      5-min Rain = 0
KQU1 242126Z 20008G14KT 32/14 A2972 RMK A01 T03200137  RH  033%=      5-min Rain = 0
KQU1 242127Z 16011KT 32/15 A2972 RMK A01 T03200146  RH  035%=      5-min Rain = 0
KQU1 242128Z 17009G14KT 32/15 A2972 RMK A01 T03200146  RH  035%=      5-min Rain = 0
KQU1 242129Z 19015KT 32/14 A2972 RMK A01 T03190138  RH  033%=      5-min Rain = 0
KQU1 242130Z 19011KT 32/14 A2972 RMK A01 T03170135  RH  033%=      5-min Rain = 0
KQU1 242131Z 19013KT 32/14 A2972 RMK A01 T03160139  RH  034%=      5-min Rain = 0
KQU1 242132Z 18013KT 32/14 A2972 RMK A01 T03160140  RH  034%=      5-min Rain = 0
KQU1 242133Z 19011KT 32/14 A2972 RMK A01 T03150140  RH  035%=      5-min Rain = 0
KQU1 242134Z 19009KT 32/14 A2972 RMK A01 T03150140  RH  035%=      5-min Rain = 0
KQU1 242135Z 19009KT 32/14 A2972 RMK A01 T03160139  RH  034%=      5-min Rain = 0
KQU1 242136Z 18009KT 32/15 A2972 RMK A01 T03150146  RH  036%=      5-min Rain = 0
KQU1 242137Z 20011KT 32/14 A2972 RMK A01 T03170141  RH  034%=      5-min Rain = 0
KQU1 242138Z 19012KT 32/13 A2972 RMK A01 T03170126  RH  031%=      5-min Rain = 0
KQU1 242139Z 20010KT 32/13 A2971 RMK A01 T03160131  RH  032%=      5-min Rain = 0
KQU1 242140Z 19008KT 32/12 A2971 RMK A01 T03170122  RH  030%=      5-min Rain = 0
KQU1 242141Z 18009KT 32/12 A2971 RMK A01 T03170122  RH  031%=      5-min Rain = 0
KQU1 242142Z 19007KT 32/12 A2971 RMK A01 T03160121  RH  030%=      5-min Rain = 0
KQU1 242143Z 19008KT 32/13 A2971 RMK A01 T03160130  RH  032%=      5-min Rain = 0
KQU1 242144Z 20007KT 32/13 A2971 RMK A01 T03170133  RH  033%=      5-min Rain = 0
KQU1 242145Z 19010KT 32/14 A2971 RMK A01 T03180136  RH  033%=      5-min Rain = 0
KQU1 242146Z 19006KT 32/13 A2971 RMK A01 T03170133  RH  033%=      5-min Rain = 0
KQU1 242147Z 20007KT 32/13 A2971 RMK A01 T03170134  RH  033%=      5-min Rain = 0
KQU1 242148Z 19011G16KT 32/14 A2971 RMK A01 T03160136  RH  033%=      5-min Rain = 0
KQU1 242149Z 18010KT 32/15 A2971 RMK A01 T03160145  RH  035%=      5-min Rain = 0
KQU1 242150Z 20012KT 32/14 A2971 RMK A01 T03170140  RH  034%=      5-min Rain = 0
KQU1 242151Z 18010KT 32/14 A2971 RMK A01 T03170144  RH  035%=      5-min Rain = 0
KQU1 242152Z 18008KT 32/16 A2971 RMK A01 T03170157  RH  038%=      5-min Rain = 0
KQU1 242153Z 17006KT 32/16 A297 RMK A01 T03190159  RH  038%=      5-min Rain = 0
KQU1 242154Z 15006KT 32/16 A297 RMK A01 T03200156  RH  037%=      5-min Rain = 0
KQU1 242155Z 17007KT 32/16 A297 RMK A01 T03200157  RH  037%=      5-min Rain = 0
KQU1 242156Z 17010KT 32/16 A297 RMK A01 T03200156  RH  037%=      5-min Rain = 0
KQU1 242157Z 18012KT 32/15 A297 RMK A01 T03190154  RH  037%=      5-min Rain = 0
KQU1 242158Z 17012KT 32/15 A297 RMK A01 T03170152  RH  037%=      5-min Rain = 0
KQU1 242159Z 16012KT 32/15 A297 RMK A01 T03160150  RH  037%=      5-min Rain = 0
KQU1 242200Z 14008KT 32/15 A297 RMK A01 T03150147  RH  036%=      5-min Rain = 0
KQU1 242201Z 16010KT 32/15 A297 RMK A01 T03150152  RH  037%=      5-min Rain = 0
KQU1 242202Z 18012G17KT 32/14 A297 RMK A01 T03160144  RH  035%=      5-min Rain = 0
KQU1 242203Z 15011KT 32/15 A297 RMK A01 T03180152  RH  037%=      5-min Rain = 0
KQU1 242204Z 17012KT 32/15 A297 RMK A01 T03180146  RH  035%=      5-min Rain = 0
KQU1 242205Z 17008KT 32/15 A297 RMK A01 T03170146  RH  036%=      5-min Rain = 0
KQU1 242206Z 18009G21KT 32/15 A2969 RMK A01 T03170148  RH  036%=      5-min Rain = 0
KQU1 242207Z 19007KT 32/14 A297 RMK A01 T03180135  RH  033%=      5-min Rain = 0
KQU1 242208Z 19009KT 32/15 A297 RMK A01 T03190145  RH  035%=      5-min Rain = 0
KQU1 242209Z 16010KT 32/14 A297 RMK A01 T03190144  RH  035%=      5-min Rain = 0
KQU1 242210Z 15010KT 32/14 A2969 RMK A01 T03180144  RH  035%=      5-min Rain = 0
KQU1 242211Z 16009KT 32/14 A2969 RMK A01 T03180144  RH  035%=      5-min Rain = 0
KQU1 242212Z 15010KT 32/15 A2969 RMK A01 T03180147  RH  036%=      5-min Rain = 0
KQU1 242213Z 16015KT 32/15 A2969 RMK A01 T03180151  RH  037%=      5-min Rain = 0
KQU1 242214Z 17011KT 32/15 A2969 RMK A01 T03160151  RH  037%=      5-min Rain = 0
KQU1 242215Z 16011KT 32/15 A2969 RMK A01 T03150149  RH  037%=      5-min Rain = 0
KQU1 242216Z 15012KT 32/15 A2969 RMK A01 T03150152  RH  037%=      5-min Rain = 0
KQU1 242217Z 17012KT 32/15 A2969 RMK A01 T03150148  RH  036%=      5-min Rain = 0
KQU1 242218Z 18011KT 31/15 A2969 RMK A01 T03110148  RH  037%=      5-min Rain = 0
KQU1 242219Z 19009KT 31/14 A2969 RMK A01 T03080143  RH  037%=      5-min Rain = 0
KQU1 242220Z 17009KT 31/15 A2969 RMK A01 T03080152  RH  039%=      5-min Rain = 0
KQU1 242221Z 16010KT 31/16 A2969 RMK A01 T03100155  RH  039%=      5-min Rain = 0
KQU1 242222Z 17013KT 31/15 A2969 RMK A01 T03110148  RH  037%=      5-min Rain = 0
KQU1 242223Z 14013KT 31/15 A2969 RMK A01 T03100146  RH  037%=      5-min Rain = 0
KQU1 242224Z 14010KT 31/15 A2969 RMK A01 T03090146  RH  037%=      5-min Rain = 0
KQU1 242225Z 13010KT 31/15 A2969 RMK A01 T03070150  RH  039%=      5-min Rain = 0
KQU1 242226Z 14011KT 31/15 A2969 RMK A01 T03050146  RH  038%=      5-min Rain = 0
KQU1 242227Z 14010KT 30/15 A2969 RMK A01 T03040145  RH  038%=      5-min Rain = 0
KQU1 242228Z 14011KT 30/15 A2969 RMK A01 T03040148  RH  039%=      5-min Rain = 0
KQU1 242229Z 15015KT 31/15 A2969 RMK A01 T03060152  RH  039%=      5-min Rain = 0
KQU1 242230Z 14014KT 31/15 A2969 RMK A01 T03090152  RH  039%=      5-min Rain = 0
KQU1 242231Z 14014KT 31/15 A2969 RMK A01 T03110150  RH  038%=      5-min Rain = 0
KQU1 242232Z 14012KT 31/15 A2969 RMK A01 T03120150  RH  037%=      5-min Rain = 0
KQU1 242233Z 13011KT 31/15 A2969 RMK A01 T03120147  RH  037%=      5-min Rain = 0
KQU1 242234Z 14013KT 31/15 A2969 RMK A01 T03120152  RH  038%=      5-min Rain = 0
KQU1 242235Z 14011KT 31/15 A2969 RMK A01 T03130154  RH  038%=      5-min Rain = 0
KQU1 242236Z 13011KT 31/15 A2969 RMK A01 T03140153  RH  038%=      5-min Rain = 0
KQU1 242237Z 14010KT 32/15 A2968 RMK A01 T03150152  RH  037%=      5-min Rain = 0
KQU1 242238Z 14010KT 32/15 A2968 RMK A01 T03150154  RH  038%=      5-min Rain = 0
KQU1 242239Z 15011KT 32/16 A2968 RMK A01 T03160155  RH  038%=      5-min Rain = 0
KQU1 242240Z 15011KT 32/15 A2968 RMK A01 T03160151  RH  037%=      5-min Rain = 0
KQU1 242241Z 16011KT 32/15 A2968 RMK A01 T03150148  RH  036%=      5-min Rain = 0
KQU1 242242Z 16013KT 31/15 A2968 RMK A01 T03130148  RH  037%=      5-min Rain = 0
KQU1 242243Z 17013KT 31/15 A2968 RMK A01 T03120146  RH  037%=      5-min Rain = 0
KQU1 242244Z 17010KT 31/15 A2968 RMK A01 T03100146  RH  037%=      5-min Rain = 0
KQU1 242245Z 17008KT 31/15 A2968 RMK A01 T03110150  RH  038%=      5-min Rain = 0
KQU1 242246Z 16009KT 31/15 A2968 RMK A01 T03120146  RH  037%=      5-min Rain = 0
KQU1 242247Z 16011KT 31/15 A2968 RMK A01 T03120145  RH  036%=      5-min Rain = 0
KQU1 242248Z 16014KT 31/15 A2968 RMK A01 T03120146  RH  037%=      5-min Rain = 0
KQU1 242249Z 15013KT 31/15 A2968 RMK A01 T03110146  RH  037%=      5-min Rain = 0
KQU1 242250Z 15013KT 31/15 A2968 RMK A01 T03100146  RH  037%=      5-min Rain = 0
KQU1 242251Z 15012KT 31/15 A2968 RMK A01 T03100150  RH  038%=      5-min Rain = 0
KQU1 242252Z 15010KT 31/14 A2967 RMK A01 T03100143  RH  036%=      5-min Rain = 0
KQU1 242253Z 14010KT 31/15 A2967 RMK A01 T03080149  RH  038%=      5-min Rain = 0
KQU1 242254Z 13008KT 31/15 A2967 RMK A01 T03080152  RH  039%=      5-min Rain = 0
KQU1 242255Z 13010KT 31/15 A2967 RMK A01 T03090150  RH  038%=      5-min Rain = 0
KQU1 242256Z 13013KT 31/15 A2967 RMK A01 T03090151  RH  038%=      5-min Rain = 0
KQU1 242257Z 13012KT 31/15 A2967 RMK A01 T03100152  RH  038%=      5-min Rain = 0
KQU1 242258Z 13010KT 31/15 A2967 RMK A01 T03110149  RH  038%=      5-min Rain = 0
KQU1 242259Z 12011KT 31/15 A2967 RMK A01 T03110152  RH  038%=      5-min Rain = 0
KQU1 242300Z 14012KT 31/15 A2967 RMK A01 T03110152  RH  038%=      5-min Rain = 0
KQU1 242301Z 14013KT 31/15 A2967 RMK A01 T03120153  RH  038%=      5-min Rain = 0
KQU1 242302Z 13012KT 31/15 A2967 RMK A01 T03120152  RH  038%=      5-min Rain = 0
KQU1 242303Z 15010KT 31/15 A2967 RMK A01 T03130153  RH  038%=      5-min Rain = 0
KQU1 242304Z 15013KT 31/15 A2967 RMK A01 T03110148  RH  037%=      5-min Rain = 0
KQU1 242305Z 15014KT 31/15 A2967 RMK A01 T03080149  RH  038%=      5-min Rain = 0
KQU1 242306Z 15014KT 30/15 A2967 RMK A01 T03040148  RH  039%=      5-min Rain = 0
KQU1 242307Z 15015KT 30/15 A2967 RMK A01 T03010148  RH  039%=      5-min Rain = 0
KQU1 242308Z 15013KT 30/15 A2967 RMK A01 T02990147  RH  040%=      5-min Rain = 0
KQU1 242309Z 15013KT 30/15 A2967 RMK A01 T02980148  RH  040%=      5-min Rain = 0
KQU1 242310Z 15012KT 30/15 A2967 RMK A01 T02960149  RH  041%=      5-min Rain = 0
KQU1 242311Z 15012KT 30/15 A2967 RMK A01 T02950150  RH  041%=      5-min Rain = 0
KQU1 242312Z 15011KT 29/15 A2967 RMK A01 T02940151  RH  042%=      5-min Rain = 0
KQU1 242313Z 15010KT 29/15 A2967 RMK A01 T02930151  RH  042%=      5-min Rain = 0
KQU1 242314Z 15012KT 29/15 A2967 RMK A01 T02930151  RH  042%=      5-min Rain = 0
KQU1 242315Z 15014KT 29/15 A2967 RMK A01 T02920149  RH  042%=      5-min Rain = 0
KQU1 242316Z 14014KT 29/15 A2967 RMK A01 T02920146  RH  041%=      5-min Rain = 0
KQU1 242317Z 14013KT 29/15 A2967 RMK A01 T02920146  RH  041%=      5-min Rain = 0
KQU1 242318Z 14012KT 29/15 A2967 RMK A01 T02920146  RH  041%=      5-min Rain = 0
KQU1 242319Z 15010KT 29/15 A2967 RMK A01 T02910146  RH  041%=      5-min Rain = 0
KQU1 242320Z 14010KT 29/15 A2967 RMK A01 T02920148  RH  042%=      5-min Rain = 0
KQU1 242321Z 14012KT 29/15 A2967 RMK A01 T02920149  RH  042%=      5-min Rain = 0
KQU1 242322Z 14014KT 29/15 A2967 RMK A01 T02920147  RH  041%=      5-min Rain = 0
KQU1 242323Z 14012KT 29/15 A2967 RMK A01 T02940149  RH  041%=      5-min Rain = 0
KQU1 242324Z 14012G18KT 30/15 A2967 RMK A01 T02960151  RH  041%=      5-min Rain = 0
KQU1 242325Z 13013G18KT 30/15 A2967 RMK A01 T02980149  RH  040%=      5-min Rain = 0
KQU1 242326Z 14013KT 30/15 A2967 RMK A01 T02990149  RH  040%=      5-min Rain = 0
KQU1 242327Z 15014KT 30/15 A2967 RMK A01 T02980149  RH  040%=      5-min Rain = 0
KQU1 242328Z 15013KT 30/15 A2967 RMK A01 T02970149  RH  041%=      5-min Rain = 0
KQU1 242329Z 14011KT 30/15 A2967 RMK A01 T02950152  RH  042%=      5-min Rain = 0
KQU1 242330Z 14011KT 29/15 A2967 RMK A01 T02930150  RH  042%=      5-min Rain = 0
KQU1 242331Z 15011KT 29/15 A2967 RMK A01 T02920150  RH  042%=      5-min Rain = 0
KQU1 242332Z 15010KT 29/15 A2967 RMK A01 T02910151  RH  042%=      5-min Rain = 0
KQU1 242333Z 15011KT 29/15 A2967 RMK A01 T02900151  RH  043%=      5-min Rain = 0
KQU1 242334Z 15012KT 29/15 A2967 RMK A01 T02890150  RH  043%=      5-min Rain = 0
KQU1 242335Z 15012KT 29/15 A2966 RMK A01 T02880152  RH  044%=      5-min Rain = 0
KQU1 242336Z 15013KT 29/15 A2966 RMK A01 T02880149  RH  043%=      5-min Rain = 0
KQU1 242337Z 15013KT 29/15 A2966 RMK A01 T02880149  RH  043%=      5-min Rain = 0
KQU1 242338Z 15011KT 29/15 A2966 RMK A01 T02880151  RH  043%=      5-min Rain = 0
KQU1 242339Z 15012KT 29/15 A2966 RMK A01 T02870151  RH  043%=      5-min Rain = 0
KQU1 242340Z 15014KT 29/15 A2966 RMK A01 T02870148  RH  043%=      5-min Rain = 0
KQU1 242341Z 15014KT 29/15 A2966 RMK A01 T02870147  RH  042%=      5-min Rain = 0
KQU1 242342Z 15014KT 29/15 A2966 RMK A01 T02880145  RH  042%=      5-min Rain = 0
KQU1 242343Z 14015KT 29/14 A2966 RMK A01 T02880144  RH  041%=      5-min Rain = 0
KQU1 242344Z 14013KT 29/14 A2966 RMK A01 T02890143  RH  041%=      5-min Rain = 0
KQU1 242345Z 14013KT 29/15 A2966 RMK A01 T02890145  RH  041%=      5-min Rain = 0
KQU1 242346Z 15012KT 29/15 A2966 RMK A01 T02890147  RH  042%=      5-min Rain = 0
KQU1 242347Z 15013KT 29/15 A2966 RMK A01 T02890145  RH  041%=      5-min Rain = 0
KQU1 242348Z 15014KT 29/15 A2966 RMK A01 T02890145  RH  041%=      5-min Rain = 0
KQU1 242349Z 15017KT 29/14 A2966 RMK A01 T02890142  RH  041%=      5-min Rain = 0
KQU1 242350Z 15013KT 29/15 A2966 RMK A01 T02890145  RH  041%=      5-min Rain = 0
KQU1 242351Z 15015KT 29/15 A2966 RMK A01 T02890145  RH  041%=      5-min Rain = 0
KQU1 242352Z 15016KT 29/15 A2966 RMK A01 T02890145  RH  041%=      5-min Rain = 0
KQU1 242353Z 15014KT 29/15 A2966 RMK A01 T02890147  RH  042%=      5-min Rain = 0
KQU1 242354Z 15015KT 29/15 A2966 RMK A01 T02890147  RH  042%=      5-min Rain = 0
KQU1 242355Z 16014KT 29/15 A2966 RMK A01 T02890146  RH  042%=      5-min Rain = 0
KQU1 242356Z 15015KT 29/15 A2966 RMK A01 T02890146  RH  042%=      5-min Rain = 0
KQU1 242357Z 15014KT 29/15 A2966 RMK A01 T02890146  RH  042%=      5-min Rain = 0
KQU1 242358Z 15014KT 29/15 A2966 RMK A01 T02890145  RH  041%=      5-min Rain = 0
KQU1 242359Z 15015KT 29/14 A2966 RMK A01 T02890144  RH  041%=      5-min Rain = 0
KQU1 250000Z 15014KT 29/15 A2966 RMK A01 T02890145  RH  042%=      5-min Rain = 0
KQU1 250001Z 15013KT 29/15 A2966 RMK A01 T02880147  RH  042%=      5-min Rain = 0
KQU1 250002Z 15012KT 29/15 A2966 RMK A01 T02880149  RH  043%=      5-min Rain = 0
KQU1 250003Z 15013KT 29/15 A2966 RMK A01 T02870150  RH  043%=      5-min Rain = 0
KQU1 250004Z 16011KT 29/15 A2966 RMK A01 T02870152  RH  044%=      5-min Rain = 0
KQU1 250005Z 16013KT 29/15 A2966 RMK A01 T02870150  RH  043%=      5-min Rain = 0
KQU1 250006Z 16010KT 29/15 A2966 RMK A01 T02870153  RH  044%=      5-min Rain = 0
KQU1 250007Z 15011KT 29/15 A2966 RMK A01 T02870153  RH  044%=      5-min Rain = 0
KQU1 250008Z 16011KT 29/15 A2966 RMK A01 T02860153  RH  044%=      5-min Rain = 0
KQU1 250009Z 16012KT 29/15 A2966 RMK A01 T02860152  RH  044%=      5-min Rain = 0
KQU1 250010Z 15013KT 29/15 A2966 RMK A01 T02860151  RH  044%=      5-min Rain = 0
KQU1 250011Z 15014KT 29/15 A2965 RMK A01 T02850151  RH  044%=      5-min Rain = 0
KQU1 250012Z 15014KT 29/15 A2965 RMK A01 T02850151  RH  044%=      5-min Rain = 0
KQU1 250013Z 16012KT 29/15 A2965 RMK A01 T02850152  RH  044%=      5-min Rain = 0
KQU1 250014Z 15012KT 29/15 A2965 RMK A01 T02850152  RH  044%=      5-min Rain = 0
KQU1 250015Z 15012KT 29/15 A2965 RMK A01 T02850152  RH  044%=      5-min Rain = 0
KQU1 250016Z 15011KT 29/15 A2965 RMK A01 T02850152  RH  044%=      5-min Rain = 0
KQU1 250017Z 15012KT 28/15 A2965 RMK A01 T02840152  RH  044%=      5-min Rain = 0
KQU1 250018Z 15011KT 28/15 A2965 RMK A01 T02840152  RH  045%=      5-min Rain = 0
KQU1 250019Z 15011KT 28/15 A2965 RMK A01 T02840152  RH  044%=      5-min Rain = 0
KQU1 250020Z 15012KT 28/15 A2965 RMK A01 T02840152  RH  045%=      5-min Rain = 0
KQU1 250021Z 15011KT 28/15 A2965 RMK A01 T02840153  RH  045%=      5-min Rain = 0
KQU1 250022Z 14011KT 28/15 A2966 RMK A01 T02830154  RH  045%=      5-min Rain = 0
KQU1 250023Z 15012KT 28/16 A2966 RMK A01 T02830156  RH  046%=      5-min Rain = 0
KQU1 250024Z 14014KT 28/16 A2966 RMK A01 T02820157  RH  046%=      5-min Rain = 0
KQU1 250025Z 15017KT 28/16 A2966 RMK A01 T02820156  RH  046%=      5-min Rain = 0
KQU1 250026Z 15016KT 28/16 A2966 RMK A01 T02820156  RH  046%=      5-min Rain = 0
KQU1 250027Z 15014KT 28/16 A2966 RMK A01 T02830157  RH  046%=      5-min Rain = 0
KQU1 250028Z 14014KT 28/16 A2966 RMK A01 T02830158  RH  047%=      5-min Rain = 0
KQU1 250029Z 14014KT 28/16 A2966 RMK A01 T02820157  RH  047%=      5-min Rain = 0
KQU1 250030Z 14013KT 28/16 A2966 RMK A01 T02820158  RH  047%=      5-min Rain = 0
KQU1 250031Z 14014KT 28/16 A2966 RMK A01 T02820158  RH  047%=      5-min Rain = 0
KQU1 250032Z 14015KT 28/16 A2966 RMK A01 T02810158  RH  047%=      5-min Rain = 0
KQU1 250033Z 14015KT 28/16 A2966 RMK A01 T02810158  RH  047%=      5-min Rain = 0
KQU1 250034Z 14014KT 28/16 A2966 RMK A01 T02810158  RH  047%=      5-min Rain = 0
KQU1 250035Z 14014KT 28/16 A2966 RMK A01 T02810159  RH  047%=      5-min Rain = 0
KQU1 250036Z 14014KT 28/16 A2965 RMK A01 T02800158  RH  047%=      5-min Rain = 0
KQU1 250037Z 14018KT 28/16 A2965 RMK A01 T02800157  RH  047%=      5-min Rain = 0
KQU1 250038Z 14013KT 28/16 A2965 RMK A01 T02800158  RH  047%=      5-min Rain = 0
KQU1 250039Z 13013KT 28/16 A2965 RMK A01 T02800158  RH  048%=      5-min Rain = 0
KQU1 250040Z 14015KT 28/16 A2965 RMK A01 T02790156  RH  047%=      5-min Rain = 0
KQU1 250041Z 14013KT 28/16 A2964 RMK A01 T02790157  RH  047%=      5-min Rain = 0
KQU1 250042Z 14014G19KT 28/16 A2964 RMK A01 T02790156  RH  047%=      5-min Rain = 0
KQU1 250043Z 14013KT 28/16 A2964 RMK A01 T02790156  RH  047%=      5-min Rain = 0
KQU1 250044Z 14015KT 28/16 A2964 RMK A01 T02790155  RH  047%=      5-min Rain = 0
KQU1 250045Z 14014KT 28/15 A2964 RMK A01 T02790154  RH  047%=      5-min Rain = 0
KQU1 250046Z 14014KT 28/15 A2965 RMK A01 T02780154  RH  047%=      5-min Rain = 0
KQU1 250047Z 14015KT 28/15 A2965 RMK A01 T02780154  RH  047%=      5-min Rain = 0
KQU1 250048Z 14013KT 28/15 A2965 RMK A01 T02780154  RH  047%=      5-min Rain = 0
KQU1 250049Z 14013KT 28/15 A2965 RMK A01 T02780154  RH  047%=      5-min Rain = 0
KQU1 250050Z 14013G18KT 28/16 A2965 RMK A01 T02770155  RH  047%=      5-min Rain = 0
KQU1 250051Z 14017KT 28/15 A2964 RMK A01 T02770154  RH  047%=      5-min Rain = 0
KQU1 250052Z 14016KT 28/15 A2964 RMK A01 T02770153  RH  047%=      5-min Rain = 0
KQU1 250053Z 14015KT 28/15 A2964 RMK A01 T02780153  RH  047%=      5-min Rain = 0
KQU1 250054Z 14014KT 28/15 A2964 RMK A01 T02780154  RH  047%=      5-min Rain = 0
KQU1 250055Z 14015KT 28/15 A2963 RMK A01 T02780154  RH  047%=      5-min Rain = 0
KQU1 250056Z 13016KT 28/15 A2963 RMK A01 T02780154  RH  047%=      5-min Rain = 0
KQU1 250057Z 14016KT 28/15 A2963 RMK A01 T02780154  RH  047%=      5-min Rain = 0
KQU1 250058Z 14016KT 28/16 A2963 RMK A01 T02780155  RH  047%=      5-min Rain = 0
KQU1 250059Z 14017KT 28/16 A2963 RMK A01 T02780155  RH  047%=      5-min Rain = 0
KQU1 250100Z 15017KT 28/15 A2963 RMK A01 T02780154  RH  047%=      5-min Rain = 0
KQU1 250101Z 15020G32KT 28/14 A2963 RMK A01 T02780137  RH  042%=      5-min Rain = 0
KQU1 250102Z 25019G25KT 28/12 A2965 RMK A01 T02750116  RH  038%=      5-min Rain = 0
KQU1 250103Z 26031G38KT 27/07 A2964 RMK A01 T02670070  RH  029%=      5-min Rain = 0
KQU1 250104Z 27032G39KT 26/06 A2965 RMK A01 T02610063  RH  028%=      5-min Rain = 0
KQU1 250105Z 27029KT 26/06 A2966 RMK A01 T02570064  RH  029%=      5-min Rain = 0
KQU1 250106Z 26021KT 25/07 A2967 RMK A01 T02530068  RH  031%=      5-min Rain = 0
KQU1 250107Z 25021G26KT 25/07 A2967 RMK A01 T02490071  RH  032%=      5-min Rain = 0
KQU1 250108Z 28027G36KT 24/09 A2967 RMK A01 T02390091  RH  039%=      5-min Rain = 0
KQU1 250109Z 28025G31KT 23/11 A2967 RMK A01 T02270109  RH  047%=      5-min Rain = 0
KQU1 250110Z 29026G31KT 22/12 A2966 RMK A01 T02180115  RH  052%=      5-min Rain = 0
KQU1 250111Z 29029G34KT 21/12 A2966 RMK A01 T02060123  RH  059%=      5-min Rain = 0
KQU1 250112Z 28031KT 20/13 A2966 RMK A01 T01950125  RH  064%=      5-min Rain = 0
KQU1 250113Z 27029G36KT 19/13 A2966 RMK A01 T01870127  RH  068%=      5-min Rain = 0.01
KQU1 250114Z 27028G34KT 18/13 A2966 RMK A01 T01820127  RH  070%=      5-min Rain = 0
KQU1 250115Z 26031G39KT 18/13 A2966 RMK A01 T01770128  RH  073%=      5-min Rain = 0
KQU1 250116Z 26030G38KT 18/13 A2966 RMK A01 T01750128  RH  074%=      5-min Rain = 0
KQU1 250117Z 26032G37KT 17/13 A2965 RMK A01 T01720128  RH  076%=      5-min Rain = 0.01
KQU1 250118Z 26031G36KT 17/13 A2965 RMK A01 T01700127  RH  076%=      5-min Rain = 0
KQU1 250119Z 26032KT 17/13 A2966 RMK A01 T01680127  RH  076%=      5-min Rain = 0.01
KQU1 250120Z 26032KT 17/13 A2966 RMK A01 T01670126  RH  076%=      5-min Rain = 0.02
KQU1 250121Z 27030G35KT 17/13 A2966 RMK A01 T01660128  RH  078%=      5-min Rain = 0.01
KQU1 250122Z 27027G35KT 17/13 A2967 RMK A01 T01660128  RH  078%=      5-min Rain = 0.01
KQU1 250123Z 26026G31KT 17/13 A2967 RMK A01 T01670125  RH  076%=      5-min Rain = 0.02
KQU1 250124Z 27026KT 17/12 A2967 RMK A01 T01680123  RH  074%=      5-min Rain = 0.01
KQU1 250125Z 26023G28KT 17/13 A2968 RMK A01 T01700125  RH  075%=      5-min Rain = 0.01
KQU1 250126Z 27020G25KT 17/13 A2968 RMK A01 T01700128  RH  076%=      5-min Rain = 0.02
KQU1 250127Z 27019KT 17/13 A2968 RMK A01 T01690130  RH  078%=      5-min Rain = 0.01
KQU1 250128Z 27019KT 17/13 A2968 RMK A01 T01680128  RH  077%=      5-min Rain = 0.01
KQU1 250129Z 26019KT 17/13 A2968 RMK A01 T01680126  RH  076%=      5-min Rain = 0
KQU1 250130Z 26018KT 17/13 A2968 RMK A01 T01700127  RH  076%=      5-min Rain = 0.01
KQU1 250131Z 26017KT 17/13 A2968 RMK A01 T01700128  RH  077%=      5-min Rain = 0
KQU1 250132Z 27019KT 17/13 A2968 RMK A01 T01700128  RH  077%=      5-min Rain = 0.01
KQU1 250133Z 27020KT 17/13 A2969 RMK A01 T01700128  RH  076%=      5-min Rain = 0
KQU1 250134Z 26017G23KT 17/13 A2969 RMK A01 T01720128  RH  076%=      5-min Rain = 0
KQU1 250135Z 26019KT 17/13 A2969 RMK A01 T01720127  RH  074%=      5-min Rain = 0
KQU1 250136Z 26018KT 17/13 A2969 RMK A01 T01740126  RH  073%=      5-min Rain = 0.01
KQU1 250137Z 26018G23KT 18/13 A2969 RMK A01 T01760125  RH  072%=      5-min Rain = 0
KQU1 250138Z 26018KT 18/12 A297 RMK A01 T01770124  RH  071%=      5-min Rain = 0
KQU1 250139Z 26017G22KT 18/13 A297 RMK A01 T01780126  RH  072%=      5-min Rain = 0
KQU1 250140Z 27015KT 18/13 A297 RMK A01 T01790126  RH  071%=      5-min Rain = 0
KQU1 250141Z 27014KT 18/13 A2971 RMK A01 T01790128  RH  072%=      5-min Rain = 0
KQU1 250142Z 27013KT 18/13 A2971 RMK A01 T01790127  RH  072%=      5-min Rain = 0
KQU1 250143Z 27014KT 18/13 A2971 RMK A01 T01790127  RH  071%=      5-min Rain = 0
KQU1 250144Z 26013KT 18/13 A2971 RMK A01 T01800127  RH  071%=      5-min Rain = 0
KQU1 250145Z 26014KT 18/13 A2971 RMK A01 T01810125  RH  070%=      5-min Rain = 0
KQU1 250146Z 26014G19KT 18/13 A2971 RMK A01 T01810127  RH  071%=      5-min Rain = 0
KQU1 250147Z 26015KT 18/13 A2971 RMK A01 T01820126  RH  070%=      5-min Rain = 0
KQU1 250148Z 26013KT 18/13 A2971 RMK A01 T01830129  RH  071%=      5-min Rain = 0
KQU1 250149Z 26014KT 18/13 A2971 RMK A01 T01820130  RH  072%=      5-min Rain = 0
KQU1 250150Z 26016KT 18/13 A2972 RMK A01 T01820129  RH  071%=      5-min Rain = 0
KQU1 250151Z 26017KT 18/13 A2972 RMK A01 T01830126  RH  069%=      5-min Rain = 0
KQU1 250152Z 26016KT 18/13 A2972 RMK A01 T01840127  RH  069%=      5-min Rain = 0
KQU1 250153Z 26016G22KT 18/13 A2972 RMK A01 T01840126  RH  068%=      5-min Rain = 0
KQU1 250154Z 26016KT 19/12 A2971 RMK A01 T01860124  RH  067%=      5-min Rain = 0.01
KQU1 250155Z 25015KT 19/12 A2972 RMK A01 T01870123  RH  066%=      5-min Rain = 0
KQU1 250156Z 26015KT 19/13 A2972 RMK A01 T01870125  RH  067%=      5-min Rain = 0
KQU1 250157Z 26015KT 19/12 A2972 RMK A01 T01880124  RH  066%=      5-min Rain = 0
KQU1 250158Z 26012KT 19/13 A2972 RMK A01 T01870128  RH  069%=      5-min Rain = 0
KQU1 250159Z 26011KT 19/13 A2973 RMK A01 T01860127  RH  069%=      5-min Rain = 0
KQU1 250200Z 27010KT 19/13 A2973 RMK A01 T01850129  RH  070%=      5-min Rain = 0
KQU1 250201Z 26010KT 18/13 A2973 RMK A01 T01840130  RH  071%=      5-min Rain = 0
KQU1 250202Z 26013KT 18/13 A2973 RMK A01 T01840125  RH  068%=      5-min Rain = 0
KQU1 250203Z 26014KT 19/12 A2974 RMK A01 T01870120  RH  065%=      5-min Rain = 0
KQU1 250204Z 26015KT 19/12 A2974 RMK A01 T01890120  RH  064%=      5-min Rain = 0.01
KQU1 250205Z 27014KT 19/12 A2974 RMK A01 T01910122  RH  064%=      5-min Rain = 0
KQU1 250206Z 27014KT 19/12 A2975 RMK A01 T01910122  RH  064%=      5-min Rain = 0
KQU1 250207Z 26015KT 19/12 A2975 RMK A01 T01930116  RH  061%=      5-min Rain = 0
KQU1 250208Z 27017KT 20/11 A2975 RMK A01 T01960111  RH  058%=      5-min Rain = 0
KQU1 250209Z 28013KT 21/09 A2975 RMK A01 T02050092  RH  048%=      5-min Rain = 0.01
KQU1 250210Z 26014KT 21/10 A2975 RMK A01 T02090104  RH  051%=      5-min Rain = 0
KQU1 250211Z 27011KT 21/12 A2975 RMK A01 T02070115  RH  055%=      5-min Rain = 0
KQU1 250212Z 30010KT 20/13 A2976 RMK A01 T02020125  RH  061%=      5-min Rain = 0
KQU1 250213Z 30011KT 20/13 A2976 RMK A01 T01970128  RH  064%=      5-min Rain = 0
KQU1 250214Z 29011KT 19/12 A2976 RMK A01 T01940124  RH  064%=      5-min Rain = 0
KQU1 250215Z 29012KT 19/13 A2976 RMK A01 T01930128  RH  066%=      5-min Rain = 0
KQU1 250216Z 29012KT 19/13 A2976 RMK A01 T01900129  RH  068%=      5-min Rain = 0.01
KQU1 250217Z 29012KT 19/13 A2976 RMK A01 T01870130  RH  069%=      5-min Rain = 0.01
KQU1 250218Z 28010KT 19/13 A2976 RMK A01 T01850131  RH  071%=      5-min Rain = 0
KQU1 250219Z 28011KT 18/13 A2976 RMK A01 T01830129  RH  071%=      5-min Rain = 0
KQU1 250220Z 29012KT 18/13 A2976 RMK A01 T01830129  RH  071%=      5-min Rain = 0.01
KQU1 250221Z 28012KT 18/13 A2976 RMK A01 T01840128  RH  070%=      5-min Rain = 0
KQU1 250222Z 27011KT 18/13 A2976 RMK A01 T01830131  RH  071%=      5-min Rain = 0
KQU1 250223Z 27012KT 18/13 A2976 RMK A01 T01820131  RH  072%=      5-min Rain = 0
KQU1 250224Z 27013KT 18/13 A2976 RMK A01 T01810131  RH  073%=      5-min Rain = 0.01
KQU1 250225Z 26013KT 18/13 A2975 RMK A01 T01800130  RH  072%=      5-min Rain = 0
KQU1 250226Z 26014KT 18/13 A2975 RMK A01 T01800127  RH  071%=      5-min Rain = 0
KQU1 250227Z 26014KT 18/13 A2976 RMK A01 T01800127  RH  071%=      5-min Rain = 0
KQU1 250228Z 26013KT 18/13 A2976 RMK A01 T01810126  RH  070%=      5-min Rain = 0
KQU1 250229Z 27010KT 18/13 A2977 RMK A01 T01810127  RH  071%=      5-min Rain = 0
KQU1 250230Z 27008KT 18/13 A2977 RMK A01 T01810126  RH  070%=      5-min Rain = 0.01
KQU1 250231Z 27007KT 18/13 A2977 RMK A01 T01810131  RH  073%=      5-min Rain = 0
KQU1 250232Z 28004KT 18/13 A2978 RMK A01 T01790132  RH  074%=      5-min Rain = 0
KQU1 250233Z 30004KT 18/13 A2978 RMK A01 T01790131  RH  074%=      5-min Rain = 0.01
KQU1 250234Z 33005KT 18/14 A2978 RMK A01 T01780136  RH  076%=      5-min Rain = 0
KQU1 250235Z 32004KT 18/14 A2978 RMK A01 T01760136  RH  077%=      5-min Rain = 0
KQU1 250236Z 30004KT 18/13 A2979 RMK A01 T01750130  RH  075%=      5-min Rain = 0.01
KQU1 250237Z 25005KT 18/13 A2979 RMK A01 T01770129  RH  073%=      5-min Rain = 0
KQU1 250238Z 25004KT 18/13 A2979 RMK A01 T01780130  RH  073%=      5-min Rain = 0
KQU1 250239Z 23003KT 18/13 A2979 RMK A01 T01780128  RH  073%=      5-min Rain = 0
KQU1 250240Z 20002KT 18/13 A2979 RMK A01 T01780130  RH  073%=      5-min Rain = 0.01
KQU1 250241Z 17003KT 18/13 A2979 RMK A01 T01780131  RH  074%=      5-min Rain = 0
KQU1 250242Z 13004KT 18/14 A2979 RMK A01 T01770135  RH  076%=      5-min Rain = 0
KQU1 250243Z 10007KT 18/14 A2979 RMK A01 T01770138  RH  078%=      5-min Rain = 0
KQU1 250244Z 09009KT 18/14 A298 RMK A01 T01760142  RH  080%=      5-min Rain = 0
KQU1 250245Z 08008KT 18/14 A298 RMK A01 T01750144  RH  082%=      5-min Rain = 0.01
KQU1 250246Z 07005KT 17/14 A298 RMK A01 T01740144  RH  083%=      5-min Rain = 0
KQU1 250247Z 05005KT 17/14 A298 RMK A01 T01720144  RH  084%=      5-min Rain = 0
KQU1 250248Z 07010KT 17/14 A2979 RMK A01 T01710144  RH  084%=      5-min Rain = 0.01
KQU1 250249Z 04011G18KT 17/12 A2978 RMK A01 T01720122  RH  072%=      5-min Rain = 0.01
KQU1 250250Z 07014G19KT 18/12 A2977 RMK A01 T01790116  RH  066%=      5-min Rain = 0
KQU1 250251Z 04016G26KT 19/11 A2975 RMK A01 T01860113  RH  063%=      5-min Rain = 0.01
KQU1 250252Z 35017G26KT 19/10 A2974 RMK A01 T01930104  RH  056%=      5-min Rain = 0
KQU1 250253Z 00014G19KT 20/11 A2973 RMK A01 T01980110  RH  057%=      5-min Rain = 0
KQU1 250254Z 03016G23KT 20/12 A2971 RMK A01 T01980116  RH  059%=      5-min Rain = 0.01
KQU1 250255Z 01010G21KT 20/13 A2969 RMK A01 T01950128  RH  065%=      5-min Rain = 0
KQU1 250256Z 04024G29KT 19/13 A2969 RMK A01 T01890134  RH  070%=      5-min Rain = 0
KQU1 250257Z 03024KT 18/14 A2968 RMK A01 T01830137  RH  074%=      5-min Rain = 0
KQU1 250258Z 04021KT 18/13 A2968 RMK A01 T01800128  RH  072%=      5-min Rain = 0
KQU1 250259Z 06019G27KT 18/12 A2967 RMK A01 T01830120  RH  067%=      5-min Rain = 0
KQU1 250300Z 04021G29KT 18/12 A2966 RMK A01 T01840124  RH  068%=      5-min Rain = 0
KQU1 250301Z 03018G23KT 19/12 A2968 RMK A01 T01860117  RH  064%=      5-min Rain = 0.01
KQU1 250302Z 03019KT 19/12 A2968 RMK A01 T01870121  RH  065%=      5-min Rain = 0
KQU1 250303Z 04019G26KT 19/12 A2968 RMK A01 T01870121  RH  065%=      5-min Rain = 0
KQU1 250304Z 04019KT 19/12 A2968 RMK A01 T01890115  RH  062%=      5-min Rain = 0
KQU1 250305Z 04020KT 19/11 A2969 RMK A01 T01910111  RH  060%=      5-min Rain = 0
KQU1 250306Z 04018G26KT 19/11 A2969 RMK A01 T01940113  RH  060%=      5-min Rain = 0
KQU1 250307Z 04021G27KT 19/11 A2969 RMK A01 T01940111  RH  058%=      5-min Rain = 0
KQU1 250308Z 03018G23KT 20/12 A2969 RMK A01 T01950117  RH  061%=      5-min Rain = 0
KQU1 250309Z 03019KT 19/12 A297 RMK A01 T01930123  RH  064%=      5-min Rain = 0
KQU1 250310Z 04017G24KT 19/13 A297 RMK A01 T01900126  RH  066%=      5-min Rain = 0
KQU1 250311Z 04018G23KT 19/13 A297 RMK A01 T01870127  RH  068%=      5-min Rain = 0
KQU1 250312Z 04016KT 19/12 A297 RMK A01 T01860124  RH  067%=      5-min Rain = 0
KQU1 250313Z 05016KT 19/12 A297 RMK A01 T01860123  RH  067%=      5-min Rain = 0
KQU1 250314Z 04014KT 19/12 A297 RMK A01 T01870122  RH  066%=      5-min Rain = 0
KQU1 250315Z 03013KT 19/12 A297 RMK A01 T01880118  RH  064%=      5-min Rain = 0
KQU1 250316Z 03012KT 19/11 A297 RMK A01 T01910112  RH  060%=      5-min Rain = 0
KQU1 250317Z 03010KT 19/11 A297 RMK A01 T01940113  RH  059%=      5-min Rain = 0
KQU1 250318Z 03005G11KT 20/12 A2971 RMK A01 T01960120  RH  061%=      5-min Rain = 0
KQU1 250319Z 04005G14KT 20/12 A2971 RMK A01 T01960119  RH  061%=      5-min Rain = 0
KQU1 250320Z 03005KT 20/12 A297 RMK A01 T01950120  RH  062%=      5-min Rain = 0
KQU1 250321Z 02006KT 19/12 A297 RMK A01 T01940118  RH  061%=      5-min Rain = 0
KQU1 250322Z 02006G12KT 19/12 A297 RMK A01 T01940116  RH  061%=      5-min Rain = 0
KQU1 250323Z 02003KT 20/12 A2971 RMK A01 T01950115  RH  060%=      5-min Rain = 0
KQU1 250324Z 03005G10KT 20/11 A2971 RMK A01 T01960114  RH  059%=      5-min Rain = 0
KQU1 250325Z 04010G16KT 20/11 A2971 RMK A01 T01960111  RH  058%=      5-min Rain = 0
KQU1 250326Z 04014KT 20/11 A2971 RMK A01 T01980107  RH  056%=      5-min Rain = 0
KQU1 250327Z 06013KT 20/11 A2971 RMK A01 T01990106  RH  055%=      5-min Rain = 0
KQU1 250328Z 06013G18KT 20/11 A2972 RMK A01 T02000107  RH  055%=      5-min Rain = 0
KQU1 250329Z 09011G16KT 20/11 A2973 RMK A01 T02000114  RH  057%=      5-min Rain = 0
KQU1 250330Z 07009KT 20/12 A2974 RMK A01 T01980116  RH  059%=      5-min Rain = 0
KQU1 250331Z 10008KT 20/12 A2974 RMK A01 T01960118  RH  060%=      5-min Rain = 0
KQU1 250332Z 11009KT 20/12 A2974 RMK A01 T01950115  RH  060%=      5-min Rain = 0
KQU1 250333Z 14015KT 19/12 A2975 RMK A01 T01940122  RH  063%=      5-min Rain = 0
KQU1 250334Z 14021G28KT 19/14 A2975 RMK A01 T01900136  RH  071%=      5-min Rain = 0
KQU1 250335Z 13019G29KT 18/14 A2975 RMK A01 T01840139  RH  075%=      5-min Rain = 0
KQU1 250336Z 13024G32KT 18/14 A2975 RMK A01 T01790142  RH  079%=      5-min Rain = 0
KQU1 250337Z 13025G30KT 18/14 A2975 RMK A01 T01760143  RH  081%=      5-min Rain = 0
KQU1 250338Z 12023G29KT 17/14 A2975 RMK A01 T01730143  RH  083%=      5-min Rain = 0
KQU1 250339Z 12024KT 17/14 A2975 RMK A01 T01710142  RH  083%=      5-min Rain = 0
KQU1 250340Z 12019G24KT 17/14 A2975 RMK A01 T01700141  RH  083%=      5-min Rain = 0
KQU1 250341Z 12019KT 17/14 A2975 RMK A01 T01700139  RH  082%=      5-min Rain = 0
KQU1 250342Z 11021G26KT 17/14 A2974 RMK A01 T01700135  RH  080%=      5-min Rain = 0
KQU1 250343Z 11020KT 17/13 A2974 RMK A01 T01720131  RH  077%=      5-min Rain = 0
KQU1 250344Z 11017G24KT 17/13 A2974 RMK A01 T01730132  RH  077%=      5-min Rain = 0
KQU1 250345Z 09015G21KT 18/13 A2974 RMK A01 T01750128  RH  074%=      5-min Rain = 0
KQU1 250346Z 11015G21KT 18/12 A2974 RMK A01 T01770123  RH  070%=      5-min Rain = 0
KQU1 250347Z 11014KT 18/12 A2975 RMK A01 T01800115  RH  066%=      5-min Rain = 0
KQU1 250348Z 14013KT 18/12 A2976 RMK A01 T01840115  RH  064%=      5-min Rain = 0
KQU1 250349Z 16015KT 19/13 A2977 RMK A01 T01860126  RH  068%=      5-min Rain = 0
KQU1 250350Z 15020G25KT 18/13 A2978 RMK A01 T01840134  RH  073%=      5-min Rain = 0
KQU1 250351Z 16019KT 18/14 A2978 RMK A01 T01800139  RH  077%=      5-min Rain = 0
KQU1 250352Z 17019KT 18/14 A2978 RMK A01 T01750142  RH  081%=      5-min Rain = 0
KQU1 250353Z 16019KT 17/14 A2978 RMK A01 T01720142  RH  083%=      5-min Rain = 0
KQU1 250354Z 15021KT 17/14 A2977 RMK A01 T01690141  RH  083%=      5-min Rain = 0
KQU1 250355Z 15021G26KT 17/14 A2977 RMK A01 T01680139  RH  083%=      5-min Rain = 0
KQU1 250356Z 13020KT 17/14 A2976 RMK A01 T01680139  RH  083%=      5-min Rain = 0
KQU1 250357Z 13019G24KT 17/14 A2976 RMK A01 T01670141  RH  084%=      5-min Rain = 0
KQU1 250358Z 13018KT 17/14 A2976 RMK A01 T01670142  RH  086%=      5-min Rain = 0
KQU1 250359Z 12018KT 17/14 A2976 RMK A01 T01660144  RH  087%=      5-min Rain = 0
KQU1 250400Z 13020G27KT 16/14 A2975 RMK A01 T01640143  RH  087%=      5-min Rain = 0
KQU1 250401Z 14024G30KT 16/14 A2975 RMK A01 T01630142  RH  087%=      5-min Rain = 0
KQU1 250402Z 14023KT 16/14 A2976 RMK A01 T01620142  RH  088%=      5-min Rain = 0
KQU1 250403Z 13021KT 16/14 A2976 RMK A01 T01610142  RH  089%=      5-min Rain = 0
KQU1 250404Z 13024KT 16/14 A2976 RMK A01 T01600141  RH  089%=      5-min Rain = 0
KQU1 250405Z 13022KT 16/14 A2976 RMK A01 T01600141  RH  089%=      5-min Rain = 0
KQU1 250406Z 13021KT 16/14 A2976 RMK A01 T01600141  RH  089%=      5-min Rain = 0
KQU1 250407Z 14021G26KT 16/14 A2976 RMK A01 T01600141  RH  088%=      5-min Rain = 0
KQU1 250408Z 14020KT 16/14 A2976 RMK A01 T01600140  RH  088%=      5-min Rain = 0
KQU1 250409Z 13017G22KT 16/14 A2977 RMK A01 T01600140  RH  088%=      5-min Rain = 0
KQU1 250410Z 14017KT 16/14 A2977 RMK A01 T01610140  RH  088%=      5-min Rain = 0
KQU1 250411Z 13012G17KT 16/14 A2977 RMK A01 T01610141  RH  088%=      5-min Rain = 0
KQU1 250412Z 13009KT 16/14 A2978 RMK A01 T01610141  RH  088%=      5-min Rain = 0
KQU1 250413Z 12014G20KT 16/14 A2977 RMK A01 T01610141  RH  088%=      5-min Rain = 0
KQU1 250414Z 12018KT 16/14 A2976 RMK A01 T01610140  RH  088%=      5-min Rain = 0
KQU1 250415Z 12017KT 16/14 A2976 RMK A01 T01600141  RH  088%=      5-min Rain = 0
KQU1 250416Z 12017KT 16/14 A2975 RMK A01 T01600141  RH  088%=      5-min Rain = 0
KQU1 250417Z 11015KT 16/14 A2975 RMK A01 T01600141  RH  089%=      5-min Rain = 0
KQU1 250418Z 11019KT 16/14 A2974 RMK A01 T01600140  RH  088%=      5-min Rain = 0
KQU1 250419Z 11022KT 16/14 A2974 RMK A01 T01590140  RH  088%=      5-min Rain = 0
KQU1 250420Z 11020G26KT 16/14 A2973 RMK A01 T01590141  RH  089%=      5-min Rain = 0
KQU1 250421Z 11019KT 16/14 A2974 RMK A01 T01590142  RH  090%=      5-min Rain = 0
KQU1 250422Z 11020KT 16/14 A2974 RMK A01 T01580142  RH  090%=      5-min Rain = 0
KQU1 250423Z 10021KT 16/14 A2973 RMK A01 T01580141  RH  089%=      5-min Rain = 0
KQU1 250424Z 11024KT 16/14 A2972 RMK A01 T01580140  RH  089%=      5-min Rain = 0
KQU1 250425Z 10028G33KT 16/14 A2972 RMK A01 T01590138  RH  087%=      5-min Rain = 0
KQU1 250426Z 11023KT 16/14 A2972 RMK A01 T01600137  RH  086%=      5-min Rain = 0
KQU1 250427Z 10019G28KT 16/14 A2971 RMK A01 T01600139  RH  087%=      5-min Rain = 0
KQU1 250428Z 10022G27KT 16/14 A2971 RMK A01 T01600139  RH  087%=      5-min Rain = 0
KQU1 250429Z 10026KT 16/14 A297 RMK A01 T01600138  RH  087%=      5-min Rain = 0
KQU1 250430Z 10025G33KT 16/14 A2969 RMK A01 T01600137  RH  086%=      5-min Rain = 0
KQU1 250431Z 10020G30KT 16/14 A2968 RMK A01 T01600139  RH  087%=      5-min Rain = 0
KQU1 250432Z 09025G33KT 16/14 A2967 RMK A01 T01600139  RH  088%=      5-min Rain = 0
KQU1 250433Z 09028G34KT 16/14 A2967 RMK A01 T01590138  RH  087%=      5-min Rain = 0
KQU1 250434Z 09023G33KT 16/14 A2967 RMK A01 T01590139  RH  088%=      5-min Rain = 0
KQU1 250435Z 08029G36KT 16/14 A2967 RMK A01 T01590138  RH  087%=      5-min Rain = 0
KQU1 250436Z 07021G26KT 16/14 A2968 RMK A01 T01600137  RH  086%=      5-min Rain = 0
KQU1 250437Z 08028G37KT 16/13 A2968 RMK A01 T01610134  RH  084%=      5-min Rain = 0
KQU1 250438Z 07023G32KT 16/14 A2969 RMK A01 T01620135  RH  084%=      5-min Rain = 0
KQU1 250439Z 07027G33KT 16/14 A2968 RMK A01 T01620135  RH  084%=      5-min Rain = 0
KQU1 250440Z 08034G41KT 16/13 A2968 RMK A01 T01630133  RH  082%=      5-min Rain = 0
KQU1 250441Z 07025G38KT 16/13 A2968 RMK A01 T01640133  RH  082%=      5-min Rain = 0
KQU1 250442Z 07019G25KT 16/14 A2968 RMK A01 T01630135  RH  083%=      5-min Rain = 0
KQU1 250443Z 08027G36KT 16/14 A2967 RMK A01 T01630135  RH  083%=      5-min Rain = 0
KQU1 250444Z 08033G43KT 16/14 A2967 RMK A01 T01620136  RH  084%=      5-min Rain = 0
KQU1 250445Z 08031G37KT 16/14 A2967 RMK A01 T01620136  RH  085%=      5-min Rain = 0
KQU1 250446Z 09028G35KT 16/14 A2967 RMK A01 T01610136  RH  085%=      5-min Rain = 0
KQU1 250447Z 09025G31KT 16/14 A2967 RMK A01 T01600136  RH  085%=      5-min Rain = 0
KQU1 250448Z 09028G37KT 16/14 A2967 RMK A01 T01600135  RH  085%=      5-min Rain = 0
KQU1 250449Z 09020G30KT 16/14 A2967 RMK A01 T01600136  RH  086%=      5-min Rain = 0
KQU1 250450Z 09030G36KT 16/14 A2967 RMK A01 T01590135  RH  086%=      5-min Rain = 0
KQU1 250451Z 09024G31KT 16/14 A2967 RMK A01 T01590135  RH  086%=      5-min Rain = 0
KQU1 250452Z 09032G38KT 16/13 A2967 RMK A01 T01580134  RH  086%=      5-min Rain = 0
KQU1 250453Z 08031G36KT 16/13 A2968 RMK A01 T01580134  RH  086%=      5-min Rain = 0
KQU1 250454Z 08032G42KT 16/13 A2968 RMK A01 T01580133  RH  085%=      5-min Rain = 0
KQU1 250455Z 09028G36KT 16/14 A2969 RMK A01 T01580135  RH  086%=      5-min Rain = 0
KQU1 250456Z 09027G33KT 16/14 A2969 RMK A01 T01570135  RH  087%=      5-min Rain = 0
KQU1 250457Z 09029G36KT 16/14 A2968 RMK A01 T01560135  RH  087%=      5-min Rain = 0
KQU1 250458Z 09027G38KT 16/14 A2969 RMK A01 T01560135  RH  087%=      5-min Rain = 0
KQU1 250459Z 09023G30KT 16/14 A2969 RMK A01 T01550135  RH  088%=      5-min Rain = 0

Page generated in 0.1545 seconds.